Observation data for Aiken on 02/24/2021      Previous  Date  Next       Current Mesonet Observations  Soil Data  Daily Summary Page  Observations in Plain Language
KAI1 240600Z 26013KT 08/M08 A2984 RMK A01 T00791084  RH  031%=      5-min Rain = 0
KAI1 240601Z 26014KT 08/M08 A2984 RMK A01 T00821083  RH  030%=      5-min Rain = 0
KAI1 240602Z 26014KT 08/M08 A2984 RMK A01 T00831083  RH  030%=      5-min Rain = 0
KAI1 240603Z 26014KT 08/M08 A2984 RMK A01 T00841083  RH  030%=      5-min Rain = 0
KAI1 240604Z 26014KT 09/M08 A2984 RMK A01 T00851083  RH  029%=      5-min Rain = 0
KAI1 240605Z 26014KT 09/M08 A2984 RMK A01 T00871083  RH  029%=      5-min Rain = 0
KAI1 240606Z 26014KT 09/M08 A2984 RMK A01 T00891082  RH  029%=      5-min Rain = 0
KAI1 240607Z 26014KT 09/M08 A2984 RMK A01 T00911082  RH  029%=      5-min Rain = 0
KAI1 240608Z 26013KT 09/M08 A2984 RMK A01 T00941081  RH  028%=      5-min Rain = 0
KAI1 240609Z 26013KT 09/M08 A2984 RMK A01 T00941082  RH  028%=      5-min Rain = 0
KAI1 240610Z 26014KT 10/M08 A2985 RMK A01 T00951082  RH  028%=      5-min Rain = 0
KAI1 240611Z 26014KT 10/M08 A2985 RMK A01 T00951082  RH  028%=      5-min Rain = 0
KAI1 240612Z 26014KT 10/M08 A2985 RMK A01 T00981082  RH  027%=      5-min Rain = 0
KAI1 240613Z 26014KT 10/M08 A2985 RMK A01 T01011082  RH  027%=      5-min Rain = 0
KAI1 240614Z 26014KT 10/M08 A2985 RMK A01 T01021082  RH  026%=      5-min Rain = 0
KAI1 240615Z 27014KT 10/M08 A2985 RMK A01 T01031083  RH  026%=      5-min Rain = 0
KAI1 240616Z 27013KT 10/M08 A2985 RMK A01 T01031083  RH  026%=      5-min Rain = 0
KAI1 240617Z 27012KT 10/M08 A2985 RMK A01 T01011083  RH  026%=      5-min Rain = 0
KAI1 240618Z 27013KT 10/M08 A2985 RMK A01 T00991083  RH  027%=      5-min Rain = 0
KAI1 240619Z 28013KT 10/M08 A2986 RMK A01 T00971084  RH  027%=      5-min Rain = 0
KAI1 240620Z 28013KT 10/M08 A2986 RMK A01 T00971084  RH  027%=      5-min Rain = 0
KAI1 240621Z 28014KT 10/M08 A2986 RMK A01 T00981083  RH  027%=      5-min Rain = 0
KAI1 240622Z 28014KT 10/M08 A2986 RMK A01 T01001082  RH  027%=      5-min Rain = 0
KAI1 240623Z 28014KT 10/M08 A2986 RMK A01 T01001082  RH  027%=      5-min Rain = 0
KAI1 240624Z 28015KT 10/M08 A2985 RMK A01 T00991083  RH  027%=      5-min Rain = 0
KAI1 240625Z 28014KT 10/M08 A2985 RMK A01 T01001082  RH  027%=      5-min Rain = 0
KAI1 240626Z 27014KT 10/M08 A2985 RMK A01 T01001082  RH  027%=      5-min Rain = 0
KAI1 240627Z 27014KT 10/M08 A2985 RMK A01 T01011082  RH  027%=      5-min Rain = 0
KAI1 240628Z 27015KT 10/M08 A2985 RMK A01 T01011082  RH  027%=      5-min Rain = 0
KAI1 240629Z 27015KT 10/M08 A2985 RMK A01 T01011081  RH  027%=      5-min Rain = 0
KAI1 240630Z 27015KT 10/M08 A2985 RMK A01 T01011081  RH  027%=      5-min Rain = 0
KAI1 240631Z 27014KT 10/M08 A2985 RMK A01 T01001081  RH  027%=      5-min Rain = 0
KAI1 240632Z 27014KT 10/M08 A2985 RMK A01 T01001081  RH  027%=      5-min Rain = 0
KAI1 240633Z 27014KT 10/M08 A2985 RMK A01 T01001081  RH  027%=      5-min Rain = 0
KAI1 240634Z 28013KT 10/M08 A2986 RMK A01 T00991082  RH  027%=      5-min Rain = 0
KAI1 240635Z 28013KT 10/M08 A2986 RMK A01 T00991082  RH  027%=      5-min Rain = 0
KAI1 240636Z 28013KT 10/M08 A2986 RMK A01 T00991082  RH  027%=      5-min Rain = 0
KAI1 240637Z 28014KT 10/M08 A2986 RMK A01 T01001081  RH  027%=      5-min Rain = 0
KAI1 240638Z 28013KT 10/M08 A2986 RMK A01 T01001081  RH  027%=      5-min Rain = 0
KAI1 240639Z 28012KT 10/M08 A2986 RMK A01 T00981081  RH  027%=      5-min Rain = 0
KAI1 240640Z 28013KT 10/M08 A2986 RMK A01 T00961081  RH  028%=      5-min Rain = 0
KAI1 240641Z 28013KT 10/M08 A2986 RMK A01 T00961081  RH  028%=      5-min Rain = 0
KAI1 240642Z 28013KT 10/M08 A2986 RMK A01 T00961080  RH  028%=      5-min Rain = 0
KAI1 240643Z 27014KT 10/M08 A2986 RMK A01 T00971079  RH  028%=      5-min Rain = 0
KAI1 240644Z 27014KT 10/M08 A2986 RMK A01 T00981079  RH  028%=      5-min Rain = 0
KAI1 240645Z 27015KT 10/M08 A2986 RMK A01 T01001079  RH  028%=      5-min Rain = 0
KAI1 240646Z 27015KT 10/M08 A2986 RMK A01 T01001079  RH  027%=      5-min Rain = 0
KAI1 240647Z 27015KT 10/M08 A2986 RMK A01 T01021079  RH  027%=      5-min Rain = 0
KAI1 240648Z 27016KT 10/M08 A2986 RMK A01 T01031080  RH  027%=      5-min Rain = 0
KAI1 240649Z 27016KT 11/M08 A2986 RMK A01 T01061080  RH  026%=      5-min Rain = 0
KAI1 240650Z 27016KT 11/M08 A2986 RMK A01 T01071080  RH  026%=      5-min Rain = 0
KAI1 240651Z 27016KT 11/M08 A2986 RMK A01 T01081080  RH  026%=      5-min Rain = 0
KAI1 240652Z 27015KT 11/M08 A2986 RMK A01 T01081081  RH  026%=      5-min Rain = 0
KAI1 240653Z 28015KT 11/M08 A2986 RMK A01 T01081080  RH  026%=      5-min Rain = 0
KAI1 240654Z 27015KT 11/M08 A2986 RMK A01 T01081080  RH  026%=      5-min Rain = 0
KAI1 240655Z 27015KT 11/M08 A2986 RMK A01 T01081080  RH  026%=      5-min Rain = 0
KAI1 240656Z 27015KT 11/M08 A2987 RMK A01 T01081080  RH  026%=      5-min Rain = 0
KAI1 240657Z 28015KT 11/M08 A2987 RMK A01 T01081080  RH  026%=      5-min Rain = 0
KAI1 240658Z 28015KT 11/M08 A2987 RMK A01 T01071080  RH  026%=      5-min Rain = 0
KAI1 240659Z 28014KT 11/M08 A2987 RMK A01 T01081080  RH  026%=      5-min Rain = 0
KAI1 240700Z 28014KT 11/M08 A2987 RMK A01 T01071079  RH  026%=      5-min Rain = 0
KAI1 240701Z 28014KT 11/M08 A2987 RMK A01 T01071080  RH  026%=      5-min Rain = 0
KAI1 240702Z 27015KT 11/M08 A2987 RMK A01 T01061080  RH  026%=      5-min Rain = 0
KAI1 240703Z 27015KT 11/M08 A2987 RMK A01 T01061079  RH  026%=      5-min Rain = 0
KAI1 240704Z 27015KT 11/M08 A2987 RMK A01 T01061080  RH  026%=      5-min Rain = 0
KAI1 240705Z 27015KT 11/M08 A2987 RMK A01 T01061079  RH  026%=      5-min Rain = 0
KAI1 240706Z 27015KT 11/M08 A2987 RMK A01 T01061079  RH  026%=      5-min Rain = 0
KAI1 240707Z 27016KT 11/M08 A2987 RMK A01 T01061080  RH  026%=      5-min Rain = 0
KAI1 240708Z 27015KT 11/M08 A2987 RMK A01 T01061080  RH  026%=      5-min Rain = 0
KAI1 240709Z 28016KT 11/M08 A2987 RMK A01 T01061080  RH  026%=      5-min Rain = 0
KAI1 240710Z 28016KT 11/M08 A2987 RMK A01 T01061080  RH  026%=      5-min Rain = 0
KAI1 240711Z 27015KT 11/M08 A2987 RMK A01 T01061080  RH  026%=      5-min Rain = 0
KAI1 240712Z 27016KT 11/M08 A2987 RMK A01 T01061080  RH  026%=      5-min Rain = 0
KAI1 240713Z 27015KT 11/M08 A2987 RMK A01 T01061080  RH  026%=      5-min Rain = 0
KAI1 240714Z 27015KT 11/M08 A2987 RMK A01 T01061080  RH  026%=      5-min Rain = 0
KAI1 240715Z 27016KT 11/M08 A2987 RMK A01 T01061080  RH  026%=      5-min Rain = 0
KAI1 240716Z 27015KT 11/M08 A2987 RMK A01 T01061080  RH  026%=      5-min Rain = 0
KAI1 240717Z 27016KT 11/M08 A2987 RMK A01 T01051080  RH  026%=      5-min Rain = 0
KAI1 240718Z 27017KT 11/M08 A2987 RMK A01 T01051080  RH  026%=      5-min Rain = 0
KAI1 240719Z 27016KT 11/M08 A2987 RMK A01 T01061080  RH  026%=      5-min Rain = 0
KAI1 240720Z 27017KT 11/M08 A2987 RMK A01 T01061080  RH  026%=      5-min Rain = 0
KAI1 240721Z 27016KT 11/M08 A2987 RMK A01 T01071080  RH  026%=      5-min Rain = 0
KAI1 240722Z 27018KT 11/M08 A2987 RMK A01 T01071080  RH  026%=      5-min Rain = 0
KAI1 240723Z 27018KT 11/M08 A2987 RMK A01 T01071080  RH  026%=      5-min Rain = 0
KAI1 240724Z 27018KT 11/M08 A2987 RMK A01 T01091080  RH  026%=      5-min Rain = 0
KAI1 240725Z 27018KT 11/M08 A2987 RMK A01 T01081081  RH  026%=      5-min Rain = 0
KAI1 240726Z 27019KT 11/M08 A2987 RMK A01 T01081081  RH  026%=      5-min Rain = 0
KAI1 240727Z 27018KT 11/M08 A2987 RMK A01 T01091081  RH  026%=      5-min Rain = 0
KAI1 240728Z 27018KT 11/M08 A2987 RMK A01 T01091080  RH  026%=      5-min Rain = 0
KAI1 240729Z 27018KT 11/M08 A2987 RMK A01 T01081081  RH  026%=      5-min Rain = 0
KAI1 240730Z 27017KT 11/M08 A2987 RMK A01 T01091080  RH  026%=      5-min Rain = 0
KAI1 240731Z 27018KT 11/M08 A2987 RMK A01 T01091080  RH  026%=      5-min Rain = 0
KAI1 240732Z 28017KT 11/M08 A2987 RMK A01 T01091080  RH  026%=      5-min Rain = 0
KAI1 240733Z 29018KT 11/M08 A2988 RMK A01 T01091080  RH  026%=      5-min Rain = 0
KAI1 240734Z 30017KT 11/M08 A2989 RMK A01 T01101080  RH  025%=      5-min Rain = 0
KAI1 240735Z 31020KT 11/M08 A2989 RMK A01 T01101079  RH  026%=      5-min Rain = 0
KAI1 240736Z 30022KT 11/M08 A299 RMK A01 T01101078  RH  026%=      5-min Rain = 0
KAI1 240737Z 30025KT 11/M08 A299 RMK A01 T01131078  RH  025%=      5-min Rain = 0
KAI1 240738Z 31022KT 12/M08 A2991 RMK A01 T01171077  RH  025%=      5-min Rain = 0
KAI1 240739Z 31019KT 12/M08 A2991 RMK A01 T01171078  RH  025%=      5-min Rain = 0
KAI1 240740Z 31021KT 12/M08 A2991 RMK A01 T01171078  RH  025%=      5-min Rain = 0
KAI1 240741Z 31024KT 12/M08 A2991 RMK A01 T01181078  RH  025%=      5-min Rain = 0
KAI1 240742Z 31024KT 12/M08 A2991 RMK A01 T01181078  RH  025%=      5-min Rain = 0
KAI1 240743Z 31021KT 12/M08 A2991 RMK A01 T01161078  RH  025%=      5-min Rain = 0
KAI1 240744Z 31021KT 11/M08 A2991 RMK A01 T01131078  RH  025%=      5-min Rain = 0
KAI1 240745Z 31020KT 11/M08 A2992 RMK A01 T01121078  RH  026%=      5-min Rain = 0
KAI1 240746Z 31022KT 11/M08 A2992 RMK A01 T01091077  RH  026%=      5-min Rain = 0
KAI1 240747Z 31023G29KT 11/M08 A2992 RMK A01 T01081075  RH  027%=      5-min Rain = 0
KAI1 240748Z 32023G28KT 11/M07 A2992 RMK A01 T01081072  RH  028%=      5-min Rain = 0
KAI1 240749Z 32023KT 11/M07 A2992 RMK A01 T01081071  RH  028%=      5-min Rain = 0
KAI1 240750Z 31023G29KT 11/M07 A2992 RMK A01 T01081069  RH  028%=      5-min Rain = 0
KAI1 240751Z 31022KT 11/M07 A2992 RMK A01 T01071067  RH  029%=      5-min Rain = 0
KAI1 240752Z 31020KT 11/M07 A2992 RMK A01 T01061067  RH  029%=      5-min Rain = 0
KAI1 240753Z 31019G24KT 10/M07 A2993 RMK A01 T01031067  RH  030%=      5-min Rain = 0
KAI1 240754Z 31021KT 10/M07 A2993 RMK A01 T01021065  RH  030%=      5-min Rain = 0
KAI1 240755Z 31018KT 10/M07 A2993 RMK A01 T01021065  RH  030%=      5-min Rain = 0
KAI1 240756Z 31016KT 10/M07 A2993 RMK A01 T01001065  RH  031%=      5-min Rain = 0
KAI1 240757Z 31019KT 10/M06 A2993 RMK A01 T00971064  RH  031%=      5-min Rain = 0
KAI1 240758Z 32019G24KT 10/M06 A2993 RMK A01 T00971061  RH  032%=      5-min Rain = 0
KAI1 240759Z 32019KT 10/M06 A2993 RMK A01 T00961060  RH  033%=      5-min Rain = 0
KAI1 240800Z 32017KT 10/M06 A2993 RMK A01 T00971058  RH  033%=      5-min Rain = 0
KAI1 240801Z 32016KT 10/M06 A2994 RMK A01 T00951058  RH  033%=      5-min Rain = 0
KAI1 240802Z 32017KT 09/M06 A2994 RMK A01 T00941057  RH  034%=      5-min Rain = 0
KAI1 240803Z 32019KT 09/M06 A2993 RMK A01 T00931055  RH  035%=      5-min Rain = 0
KAI1 240804Z 32018KT 09/M05 A2994 RMK A01 T00931054  RH  035%=      5-min Rain = 0
KAI1 240805Z 33020KT 09/M05 A2994 RMK A01 T00931053  RH  035%=      5-min Rain = 0
KAI1 240806Z 33019KT 09/M05 A2994 RMK A01 T00931051  RH  036%=      5-min Rain = 0
KAI1 240807Z 33018KT 09/M05 A2994 RMK A01 T00921051  RH  036%=      5-min Rain = 0
KAI1 240808Z 33017KT 09/M05 A2994 RMK A01 T00911051  RH  036%=      5-min Rain = 0
KAI1 240809Z 33019KT 09/M05 A2994 RMK A01 T00901050  RH  037%=      5-min Rain = 0
KAI1 240810Z 33018G23KT 09/M05 A2994 RMK A01 T00891050  RH  037%=      5-min Rain = 0
KAI1 240811Z 33017KT 09/M05 A2994 RMK A01 T00891048  RH  038%=      5-min Rain = 0
KAI1 240812Z 33017KT 09/M05 A2994 RMK A01 T00881047  RH  038%=      5-min Rain = 0
KAI1 240813Z 33018KT 09/M05 A2994 RMK A01 T00861047  RH  038%=      5-min Rain = 0
KAI1 240814Z 33018KT 09/M05 A2994 RMK A01 T00861047  RH  039%=      5-min Rain = 0
KAI1 240815Z 33020KT 09/M05 A2994 RMK A01 T00861046  RH  039%=      5-min Rain = 0
KAI1 240816Z 34018KT 09/M05 A2995 RMK A01 T00871045  RH  039%=      5-min Rain = 0
KAI1 240817Z 33021KT 09/M05 A2995 RMK A01 T00861045  RH  039%=      5-min Rain = 0
KAI1 240818Z 34021KT 09/M04 A2995 RMK A01 T00861044  RH  040%=      5-min Rain = 0
KAI1 240819Z 34020KT 09/M04 A2995 RMK A01 T00861044  RH  040%=      5-min Rain = 0
KAI1 240820Z 34020KT 09/M04 A2995 RMK A01 T00851044  RH  040%=      5-min Rain = 0
KAI1 240821Z 34021KT 09/M04 A2995 RMK A01 T00851043  RH  040%=      5-min Rain = 0
KAI1 240822Z 34020KT 09/M04 A2995 RMK A01 T00851043  RH  040%=      5-min Rain = 0
KAI1 240823Z 34020KT 08/M04 A2995 RMK A01 T00831044  RH  040%=      5-min Rain = 0
KAI1 240824Z 34022KT 08/M04 A2995 RMK A01 T00831043  RH  041%=      5-min Rain = 0
KAI1 240825Z 34020KT 08/M04 A2995 RMK A01 T00821042  RH  041%=      5-min Rain = 0
KAI1 240826Z 36020KT 08/M04 A2995 RMK A01 T00821042  RH  041%=      5-min Rain = 0
KAI1 240827Z 35021KT 08/M04 A2995 RMK A01 T00821042  RH  041%=      5-min Rain = 0
KAI1 240828Z 34025KT 08/M04 A2995 RMK A01 T00821042  RH  041%=      5-min Rain = 0
KAI1 240829Z 35025KT 08/M04 A2995 RMK A01 T00821042  RH  041%=      5-min Rain = 0
KAI1 240830Z 35022KT 08/M04 A2995 RMK A01 T00831042  RH  041%=      5-min Rain = 0
KAI1 240831Z 35019KT 08/M04 A2996 RMK A01 T00821042  RH  041%=      5-min Rain = 0
KAI1 240832Z 35018KT 08/M04 A2996 RMK A01 T00811043  RH  041%=      5-min Rain = 0
KAI1 240833Z 35020KT 08/M04 A2996 RMK A01 T00791043  RH  042%=      5-min Rain = 0
KAI1 240834Z 36022KT 08/M04 A2996 RMK A01 T00791042  RH  042%=      5-min Rain = 0
KAI1 240835Z 35021KT 08/M04 A2996 RMK A01 T00791042  RH  042%=      5-min Rain = 0
KAI1 240836Z 35022KT 08/M04 A2996 RMK A01 T00791042  RH  042%=      5-min Rain = 0
KAI1 240837Z 35022G27KT 08/M04 A2996 RMK A01 T00791041  RH  042%=      5-min Rain = 0
KAI1 240838Z 35020KT 08/M04 A2996 RMK A01 T00791041  RH  042%=      5-min Rain = 0
KAI1 240839Z 35019KT 08/M04 A2996 RMK A01 T00781042  RH  042%=      5-min Rain = 0
KAI1 240840Z 35019KT 08/M04 A2996 RMK A01 T00771042  RH  043%=      5-min Rain = 0
KAI1 240841Z 35020KT 08/M04 A2997 RMK A01 T00761042  RH  043%=      5-min Rain = 0
KAI1 240842Z 35022KT 08/M04 A2997 RMK A01 T00761042  RH  043%=      5-min Rain = 0
KAI1 240843Z 35019KT 08/M04 A2997 RMK A01 T00761041  RH  043%=      5-min Rain = 0
KAI1 240844Z 35019KT 08/M04 A2997 RMK A01 T00761041  RH  043%=      5-min Rain = 0
KAI1 240845Z 35019KT 08/M04 A2997 RMK A01 T00751042  RH  043%=      5-min Rain = 0
KAI1 240846Z 35019KT 08/M04 A2997 RMK A01 T00751041  RH  044%=      5-min Rain = 0
KAI1 240847Z 36021KT 07/M04 A2997 RMK A01 T00741041  RH  044%=      5-min Rain = 0
KAI1 240848Z 35020KT 07/M04 A2997 RMK A01 T00741041  RH  044%=      5-min Rain = 0
KAI1 240849Z 35019KT 07/M04 A2997 RMK A01 T00741041  RH  044%=      5-min Rain = 0
KAI1 240850Z 36018KT 07/M04 A2997 RMK A01 T00741042  RH  044%=      5-min Rain = 0
KAI1 240851Z 36020KT 07/M04 A2997 RMK A01 T00731042  RH  044%=      5-min Rain = 0
KAI1 240852Z 36019KT 07/M04 A2998 RMK A01 T00731042  RH  044%=      5-min Rain = 0
KAI1 240853Z 36019KT 07/M04 A2998 RMK A01 T00731041  RH  044%=      5-min Rain = 0
KAI1 240854Z 36019KT 07/M04 A2998 RMK A01 T00731041  RH  044%=      5-min Rain = 0
KAI1 240855Z 36018KT 07/M04 A2998 RMK A01 T00731041  RH  044%=      5-min Rain = 0
KAI1 240856Z 36018KT 07/M04 A2998 RMK A01 T00721041  RH  044%=      5-min Rain = 0
KAI1 240857Z 36017KT 07/M04 A2998 RMK A01 T00721042  RH  044%=      5-min Rain = 0
KAI1 240858Z 36018KT 07/M04 A2998 RMK A01 T00701042  RH  045%=      5-min Rain = 0
KAI1 240859Z 36017KT 07/M04 A2998 RMK A01 T00701041  RH  045%=      5-min Rain = 0
KAI1 240900Z 36018KT 07/M04 A2998 RMK A01 T00701042  RH  045%=      5-min Rain = 0
KAI1 240901Z 36018KT 07/M04 A2998 RMK A01 T00691042  RH  045%=      5-min Rain = 0
KAI1 240902Z 00020G25KT 07/M04 A2998 RMK A01 T00691041  RH  045%=      5-min Rain = 0
KAI1 240903Z 36020KT 07/M04 A2998 RMK A01 T00691041  RH  045%=      5-min Rain = 0
KAI1 240904Z 00021KT 07/M04 A2998 RMK A01 T00691041  RH  045%=      5-min Rain = 0
KAI1 240905Z 00021KT 07/M04 A2998 RMK A01 T00691041  RH  045%=      5-min Rain = 0
KAI1 240906Z 00023KT 07/M04 A2998 RMK A01 T00691041  RH  045%=      5-min Rain = 0
KAI1 240907Z 00021G26KT 07/M04 A2998 RMK A01 T00701041  RH  045%=      5-min Rain = 0
KAI1 240908Z 01022KT 07/M04 A2998 RMK A01 T00701041  RH  045%=      5-min Rain = 0
KAI1 240909Z 01021KT 07/M04 A2998 RMK A01 T00691041  RH  045%=      5-min Rain = 0
KAI1 240910Z 00022KT 07/M04 A2998 RMK A01 T00691042  RH  045%=      5-min Rain = 0
KAI1 240911Z 00021KT 07/M04 A2998 RMK A01 T00691041  RH  045%=      5-min Rain = 0
KAI1 240912Z 00020KT 07/M04 A2998 RMK A01 T00691041  RH  045%=      5-min Rain = 0
KAI1 240913Z 36019KT 07/M04 A2998 RMK A01 T00681042  RH  045%=      5-min Rain = 0
KAI1 240914Z 00019KT 07/M04 A2998 RMK A01 T00671042  RH  046%=      5-min Rain = 0
KAI1 240915Z 36020KT 07/M04 A2998 RMK A01 T00671042  RH  046%=      5-min Rain = 0
KAI1 240916Z 00019KT 07/M04 A2998 RMK A01 T00671042  RH  046%=      5-min Rain = 0
KAI1 240917Z 00020G25KT 07/M04 A2998 RMK A01 T00661042  RH  046%=      5-min Rain = 0
KAI1 240918Z 00022G27KT 07/M04 A2998 RMK A01 T00671042  RH  046%=      5-min Rain = 0
KAI1 240919Z 00021KT 07/M04 A2998 RMK A01 T00671042  RH  046%=      5-min Rain = 0
KAI1 240920Z 00019KT 07/M04 A2998 RMK A01 T00671042  RH  046%=      5-min Rain = 0
KAI1 240921Z 00021KT 07/M04 A2998 RMK A01 T00661043  RH  046%=      5-min Rain = 0
KAI1 240922Z 00021KT 07/M04 A2998 RMK A01 T00661043  RH  046%=      5-min Rain = 0
KAI1 240923Z 36022KT 07/M04 A2998 RMK A01 T00651043  RH  046%=      5-min Rain = 0
KAI1 240924Z 36023KT 07/M04 A2999 RMK A01 T00661043  RH  046%=      5-min Rain = 0
KAI1 240925Z 35022KT 07/M04 A2999 RMK A01 T00671042  RH  046%=      5-min Rain = 0
KAI1 240926Z 35020KT 07/M04 A2998 RMK A01 T00671042  RH  046%=      5-min Rain = 0
KAI1 240927Z 36019KT 07/M04 A2998 RMK A01 T00671042  RH  046%=      5-min Rain = 0
KAI1 240928Z 36019KT 07/M04 A2998 RMK A01 T00661042  RH  046%=      5-min Rain = 0
KAI1 240929Z 36019KT 06/M04 A2999 RMK A01 T00641043  RH  046%=      5-min Rain = 0
KAI1 240930Z 36018KT 06/M04 A2999 RMK A01 T00641043  RH  046%=      5-min Rain = 0
KAI1 240931Z 35018KT 06/M04 A2999 RMK A01 T00631043  RH  047%=      5-min Rain = 0
KAI1 240932Z 35017KT 06/M04 A2999 RMK A01 T00621043  RH  047%=      5-min Rain = 0
KAI1 240933Z 35017KT 06/M04 A2999 RMK A01 T00621043  RH  047%=      5-min Rain = 0
KAI1 240934Z 35017KT 06/M04 A2999 RMK A01 T00611043  RH  047%=      5-min Rain = 0
KAI1 240935Z 35018KT 06/M04 A2999 RMK A01 T00611043  RH  047%=      5-min Rain = 0
KAI1 240936Z 36018KT 06/M04 A2999 RMK A01 T00601043  RH  047%=      5-min Rain = 0
KAI1 240937Z 36017KT 06/M04 A2999 RMK A01 T00611043  RH  047%=      5-min Rain = 0
KAI1 240938Z 00018KT 06/M04 A2999 RMK A01 T00601043  RH  047%=      5-min Rain = 0
KAI1 240939Z 00017KT 06/M04 A2999 RMK A01 T00601044  RH  047%=      5-min Rain = 0
KAI1 240940Z 00018KT 06/M04 A2999 RMK A01 T00601043  RH  048%=      5-min Rain = 0
KAI1 240941Z 35017KT 06/M04 A30 RMK A01 T00601043  RH  048%=      5-min Rain = 0
KAI1 240942Z 36018KT 06/M04 A30 RMK A01 T00591043  RH  048%=      5-min Rain = 0
KAI1 240943Z 36017KT 06/M04 A30 RMK A01 T00591043  RH  048%=      5-min Rain = 0
KAI1 240944Z 36017KT 06/M04 A30 RMK A01 T00601043  RH  048%=      5-min Rain = 0
KAI1 240945Z 36018KT 06/M04 A30 RMK A01 T00591043  RH  048%=      5-min Rain = 0
KAI1 240946Z 00016KT 06/M04 A30 RMK A01 T00591043  RH  048%=      5-min Rain = 0
KAI1 240947Z 36017KT 06/M04 A30 RMK A01 T00581044  RH  048%=      5-min Rain = 0
KAI1 240948Z 35018KT 06/M04 A30 RMK A01 T00581043  RH  048%=      5-min Rain = 0
KAI1 240949Z 36015KT 06/M04 A30 RMK A01 T00591043  RH  048%=      5-min Rain = 0
KAI1 240950Z 35016KT 06/M04 A30 RMK A01 T00581044  RH  048%=      5-min Rain = 0
KAI1 240951Z 35017KT 06/M04 A30 RMK A01 T00581044  RH  048%=      5-min Rain = 0
KAI1 240952Z 35016KT 06/M04 A30 RMK A01 T00581044  RH  048%=      5-min Rain = 0
KAI1 240953Z 35015KT 06/M04 A30 RMK A01 T00571044  RH  048%=      5-min Rain = 0
KAI1 240954Z 35015KT 06/M04 A3001 RMK A01 T00571044  RH  048%=      5-min Rain = 0
KAI1 240955Z 35014KT 06/M05 A3001 RMK A01 T00571045  RH  048%=      5-min Rain = 0
KAI1 240956Z 35015KT 06/M05 A3001 RMK A01 T00561045  RH  048%=      5-min Rain = 0
KAI1 240957Z 35015KT 06/M05 A3001 RMK A01 T00551045  RH  049%=      5-min Rain = 0
KAI1 240958Z 35014KT 06/M05 A3001 RMK A01 T00551045  RH  049%=      5-min Rain = 0
KAI1 240959Z 35016KT 05/M05 A3001 RMK A01 T00541045  RH  049%=      5-min Rain = 0
KAI1 241000Z 36015KT 05/M05 A3001 RMK A01 T00541045  RH  049%=      5-min Rain = 0
KAI1 241001Z 00016KT 05/M05 A3001 RMK A01 T00541045  RH  049%=      5-min Rain = 0
KAI1 241002Z 00017KT 05/M05 A3001 RMK A01 T00531045  RH  049%=      5-min Rain = 0
KAI1 241003Z 00018KT 05/M05 A3001 RMK A01 T00531045  RH  049%=      5-min Rain = 0
KAI1 241004Z 00017KT 05/M05 A3001 RMK A01 T00541045  RH  049%=      5-min Rain = 0
KAI1 241005Z 00016KT 05/M05 A3001 RMK A01 T00541045  RH  049%=      5-min Rain = 0
KAI1 241006Z 00017KT 05/M05 A3001 RMK A01 T00541045  RH  049%=      5-min Rain = 0
KAI1 241007Z 00016KT 05/M05 A3001 RMK A01 T00541046  RH  049%=      5-min Rain = 0
KAI1 241008Z 36016KT 05/M05 A3001 RMK A01 T00531046  RH  049%=      5-min Rain = 0
KAI1 241009Z 36015KT 05/M05 A3001 RMK A01 T00521046  RH  049%=      5-min Rain = 0
KAI1 241010Z 36016KT 05/M05 A3001 RMK A01 T00521046  RH  049%=      5-min Rain = 0
KAI1 241011Z 36015KT 05/M05 A3001 RMK A01 T00511046  RH  049%=      5-min Rain = 0
KAI1 241012Z 35014KT 05/M05 A3001 RMK A01 T00511047  RH  049%=      5-min Rain = 0
KAI1 241013Z 36016KT 05/M05 A3001 RMK A01 T00511046  RH  050%=      5-min Rain = 0
KAI1 241014Z 36015KT 05/M05 A3001 RMK A01 T00501046  RH  050%=      5-min Rain = 0
KAI1 241015Z 36016KT 05/M05 A3001 RMK A01 T00501047  RH  050%=      5-min Rain = 0
KAI1 241016Z 36015KT 05/M05 A3001 RMK A01 T00501046  RH  050%=      5-min Rain = 0
KAI1 241017Z 36014KT 05/M05 A3001 RMK A01 T00501047  RH  050%=      5-min Rain = 0
KAI1 241018Z 00015KT 05/M05 A3001 RMK A01 T00491047  RH  050%=      5-min Rain = 0
KAI1 241019Z 36015KT 05/M05 A3002 RMK A01 T00481047  RH  050%=      5-min Rain = 0
KAI1 241020Z 36014KT 05/M05 A3002 RMK A01 T00481047  RH  050%=      5-min Rain = 0
KAI1 241021Z 36014KT 05/M05 A3002 RMK A01 T00481048  RH  050%=      5-min Rain = 0
KAI1 241022Z 36014KT 05/M05 A3002 RMK A01 T00481048  RH  050%=      5-min Rain = 0
KAI1 241023Z 36014KT 05/M05 A3002 RMK A01 T00471048  RH  050%=      5-min Rain = 0
KAI1 241024Z 35013KT 05/M05 A3002 RMK A01 T00471048  RH  050%=      5-min Rain = 0
KAI1 241025Z 35013KT 05/M05 A3002 RMK A01 T00461048  RH  050%=      5-min Rain = 0
KAI1 241026Z 35013KT 05/M05 A3002 RMK A01 T00461048  RH  051%=      5-min Rain = 0
KAI1 241027Z 36013KT 05/M05 A3002 RMK A01 T00451048  RH  051%=      5-min Rain = 0
KAI1 241028Z 35013KT 05/M05 A3002 RMK A01 T00451048  RH  051%=      5-min Rain = 0
KAI1 241029Z 35014KT 05/M05 A3002 RMK A01 T00451048  RH  051%=      5-min Rain = 0
KAI1 241030Z 36013KT 04/M05 A3002 RMK A01 T00441048  RH  051%=      5-min Rain = 0
KAI1 241031Z 00013KT 04/M05 A3002 RMK A01 T00441048  RH  051%=      5-min Rain = 0
KAI1 241032Z 00014KT 04/M05 A3002 RMK A01 T00441048  RH  051%=      5-min Rain = 0
KAI1 241033Z 36013KT 04/M05 A3002 RMK A01 T00441048  RH  051%=      5-min Rain = 0
KAI1 241034Z 36014KT 04/M05 A3002 RMK A01 T00441048  RH  051%=      5-min Rain = 0
KAI1 241035Z 36014KT 04/M05 A3002 RMK A01 T00431049  RH  051%=      5-min Rain = 0
KAI1 241036Z 00015KT 04/M05 A3002 RMK A01 T00431049  RH  051%=      5-min Rain = 0
KAI1 241037Z 36014KT 04/M05 A3002 RMK A01 T00431048  RH  051%=      5-min Rain = 0
KAI1 241038Z 36015KT 04/M05 A3002 RMK A01 T00431048  RH  051%=      5-min Rain = 0
KAI1 241039Z 36016KT 04/M05 A3002 RMK A01 T00431049  RH  051%=      5-min Rain = 0
KAI1 241040Z 35017KT 04/M05 A3002 RMK A01 T00431049  RH  051%=      5-min Rain = 0
KAI1 241041Z 36015KT 04/M05 A3003 RMK A01 T00431048  RH  051%=      5-min Rain = 0
KAI1 241042Z 35016KT 04/M05 A3003 RMK A01 T00431048  RH  051%=      5-min Rain = 0
KAI1 241043Z 35016KT 04/M05 A3003 RMK A01 T00431048  RH  051%=      5-min Rain = 0
KAI1 241044Z 35015KT 04/M05 A3003 RMK A01 T00431048  RH  052%=      5-min Rain = 0
KAI1 241045Z 35015KT 04/M05 A3003 RMK A01 T00421049  RH  052%=      5-min Rain = 0
KAI1 241046Z 35014KT 04/M05 A3003 RMK A01 T00411049  RH  052%=      5-min Rain = 0
KAI1 241047Z 35014KT 04/M05 A3003 RMK A01 T00401049  RH  052%=      5-min Rain = 0
KAI1 241048Z 35013KT 04/M05 A3003 RMK A01 T00401049  RH  052%=      5-min Rain = 0
KAI1 241049Z 35013KT 04/M05 A3003 RMK A01 T00391049  RH  053%=      5-min Rain = 0
KAI1 241050Z 00013KT 04/M05 A3003 RMK A01 T00391049  RH  053%=      5-min Rain = 0
KAI1 241051Z 00013KT 04/M05 A3003 RMK A01 T00391049  RH  053%=      5-min Rain = 0
KAI1 241052Z 00013KT 04/M05 A3003 RMK A01 T00381049  RH  053%=      5-min Rain = 0
KAI1 241053Z 00012KT 04/M05 A3003 RMK A01 T00381049  RH  053%=      5-min Rain = 0
KAI1 241054Z 36013KT 04/M05 A3003 RMK A01 T00381050  RH  053%=      5-min Rain = 0
KAI1 241055Z 36013KT 04/M05 A3003 RMK A01 T00381050  RH  053%=      5-min Rain = 0
KAI1 241056Z 35013KT 04/M05 A3003 RMK A01 T00371050  RH  053%=      5-min Rain = 0
KAI1 241057Z 35013KT 04/M05 A3003 RMK A01 T00361051  RH  053%=      5-min Rain = 0
KAI1 241058Z 35014KT 04/M05 A3003 RMK A01 T00361050  RH  053%=      5-min Rain = 0
KAI1 241059Z 35014KT 04/M05 A3003 RMK A01 T00361050  RH  053%=      5-min Rain = 0
KAI1 241100Z 35015KT 04/M05 A3003 RMK A01 T00361050  RH  053%=      5-min Rain = 0
KAI1 241101Z 35014KT 04/M05 A3003 RMK A01 T00361051  RH  053%=      5-min Rain = 0
KAI1 241102Z 35014KT 04/M05 A3003 RMK A01 T00351051  RH  053%=      5-min Rain = 0
KAI1 241103Z 36015KT 04/M05 A3003 RMK A01 T00351051  RH  053%=      5-min Rain = 0
KAI1 241104Z 00015KT 04/M05 A3003 RMK A01 T00361050  RH  053%=      5-min Rain = 0
KAI1 241105Z 00015KT 04/M05 A3003 RMK A01 T00361051  RH  053%=      5-min Rain = 0
KAI1 241106Z 00015KT 04/M05 A3003 RMK A01 T00361051  RH  053%=      5-min Rain = 0
KAI1 241107Z 00015KT 04/M05 A3003 RMK A01 T00371050  RH  053%=      5-min Rain = 0
KAI1 241108Z 36016KT 04/M05 A3003 RMK A01 T00371050  RH  053%=      5-min Rain = 0
KAI1 241109Z 36016KT 04/M05 A3004 RMK A01 T00371050  RH  053%=      5-min Rain = 0
KAI1 241110Z 36015KT 04/M05 A3004 RMK A01 T00371050  RH  053%=      5-min Rain = 0
KAI1 241111Z 35016KT 04/M05 A3004 RMK A01 T00371050  RH  053%=      5-min Rain = 0
KAI1 241112Z 35016KT 04/M05 A3004 RMK A01 T00371050  RH  053%=      5-min Rain = 0
KAI1 241113Z 35015KT 04/M05 A3004 RMK A01 T00371050  RH  053%=      5-min Rain = 0
KAI1 241114Z 35016KT 04/M05 A3004 RMK A01 T00361050  RH  053%=      5-min Rain = 0
KAI1 241115Z 35016KT 04/M05 A3004 RMK A01 T00361050  RH  053%=      5-min Rain = 0
KAI1 241116Z 35017KT 04/M05 A3004 RMK A01 T00361050  RH  053%=      5-min Rain = 0
KAI1 241117Z 35017KT 04/M05 A3004 RMK A01 T00361050  RH  053%=      5-min Rain = 0
KAI1 241118Z 35016KT 04/M05 A3004 RMK A01 T00361051  RH  053%=      5-min Rain = 0
KAI1 241119Z 35017KT 04/M05 A3004 RMK A01 T00361051  RH  053%=      5-min Rain = 0
KAI1 241120Z 35017KT 04/M05 A3004 RMK A01 T00361050  RH  053%=      5-min Rain = 0
KAI1 241121Z 35017KT 04/M05 A3005 RMK A01 T00361050  RH  053%=      5-min Rain = 0
KAI1 241122Z 35018KT 04/M05 A3005 RMK A01 T00361050  RH  053%=      5-min Rain = 0
KAI1 241123Z 36017KT 04/M05 A3005 RMK A01 T00361050  RH  053%=      5-min Rain = 0
KAI1 241124Z 36017KT 04/M05 A3005 RMK A01 T00361050  RH  053%=      5-min Rain = 0
KAI1 241125Z 00018KT 04/M05 A3005 RMK A01 T00361050  RH  053%=      5-min Rain = 0
KAI1 241126Z 00019KT 04/M05 A3005 RMK A01 T00361050  RH  053%=      5-min Rain = 0
KAI1 241127Z 36019KT 04/M05 A3005 RMK A01 T00371050  RH  053%=      5-min Rain = 0
KAI1 241128Z 36019KT 04/M05 A3005 RMK A01 T00371050  RH  053%=      5-min Rain = 0
KAI1 241129Z 36018KT 04/M05 A3005 RMK A01 T00371050  RH  053%=      5-min Rain = 0
KAI1 241130Z 35018KT 04/M05 A3005 RMK A01 T00371050  RH  053%=      5-min Rain = 0
KAI1 241131Z 35017KT 04/M05 A3005 RMK A01 T00371050  RH  053%=      5-min Rain = 0
KAI1 241132Z 35016KT 04/M05 A3005 RMK A01 T00361050  RH  053%=      5-min Rain = 0
KAI1 241133Z 35017KT 04/M05 A3005 RMK A01 T00351050  RH  054%=      5-min Rain = 0
KAI1 241134Z 35017KT 03/M05 A3005 RMK A01 T00341050  RH  054%=      5-min Rain = 0
KAI1 241135Z 35016KT 03/M05 A3005 RMK A01 T00341050  RH  054%=      5-min Rain = 0
KAI1 241136Z 35016KT 03/M05 A3005 RMK A01 T00331050  RH  054%=      5-min Rain = 0
KAI1 241137Z 35015G20KT 03/M05 A3006 RMK A01 T00331050  RH  054%=      5-min Rain = 0
KAI1 241138Z 35017KT 03/M05 A3006 RMK A01 T00321050  RH  055%=      5-min Rain = 0
KAI1 241139Z 35016KT 03/M05 A3006 RMK A01 T00331050  RH  055%=      5-min Rain = 0
KAI1 241140Z 35017KT 03/M05 A3006 RMK A01 T00331050  RH  055%=      5-min Rain = 0
KAI1 241141Z 35016KT 03/M05 A3006 RMK A01 T00341049  RH  055%=      5-min Rain = 0
KAI1 241142Z 35016KT 03/M05 A3006 RMK A01 T00331050  RH  055%=      5-min Rain = 0
KAI1 241143Z 35018KT 03/M05 A3006 RMK A01 T00331050  RH  055%=      5-min Rain = 0
KAI1 241144Z 35018KT 03/M05 A3006 RMK A01 T00331049  RH  055%=      5-min Rain = 0
KAI1 241145Z 35017KT 03/M05 A3006 RMK A01 T00341050  RH  054%=      5-min Rain = 0
KAI1 241146Z 35016KT 03/M05 A3006 RMK A01 T00341050  RH  054%=      5-min Rain = 0
KAI1 241147Z 35017KT 03/M05 A3006 RMK A01 T00331050  RH  055%=      5-min Rain = 0
KAI1 241148Z 34016KT 03/M05 A3006 RMK A01 T00331050  RH  055%=      5-min Rain = 0
KAI1 241149Z 34015KT 03/M05 A3006 RMK A01 T00321050  RH  055%=      5-min Rain = 0
KAI1 241150Z 34015KT 03/M05 A3006 RMK A01 T00311050  RH  055%=      5-min Rain = 0
KAI1 241151Z 34016KT 03/M05 A3006 RMK A01 T00301050  RH  056%=      5-min Rain = 0
KAI1 241152Z 35015KT 03/M05 A3006 RMK A01 T00301050  RH  056%=      5-min Rain = 0
KAI1 241153Z 34016KT 03/M05 A3006 RMK A01 T00301050  RH  056%=      5-min Rain = 0
KAI1 241154Z 35015KT 03/M05 A3006 RMK A01 T00301050  RH  056%=      5-min Rain = 0
KAI1 241155Z 35015G20KT 03/M05 A3006 RMK A01 T00301050  RH  056%=      5-min Rain = 0
KAI1 241156Z 35018KT 03/M05 A3006 RMK A01 T00301050  RH  056%=      5-min Rain = 0
KAI1 241157Z 35016KT 03/M05 A3006 RMK A01 T00301049  RH  056%=      5-min Rain = 0
KAI1 241158Z 35017KT 03/M05 A3006 RMK A01 T00301050  RH  056%=      5-min Rain = 0
KAI1 241159Z 35017KT 03/M05 A3006 RMK A01 T00301050  RH  056%=      5-min Rain = 0
KAI1 241200Z 34017KT 03/M05 A3006 RMK A01 T00311049  RH  056%=      5-min Rain = 0
KAI1 241201Z 35017KT 03/M05 A3006 RMK A01 T00311049  RH  056%=      5-min Rain = 0
KAI1 241202Z 34016KT 03/M05 A3007 RMK A01 T00311050  RH  056%=      5-min Rain = 0
KAI1 241203Z 34017KT 03/M05 A3007 RMK A01 T00301049  RH  056%=      5-min Rain = 0
KAI1 241204Z 34016KT 03/M05 A3007 RMK A01 T00291050  RH  056%=      5-min Rain = 0
KAI1 241205Z 34016KT 03/M05 A3007 RMK A01 T00291050  RH  056%=      5-min Rain = 0
KAI1 241206Z 35016KT 03/M05 A3007 RMK A01 T00291050  RH  056%=      5-min Rain = 0
KAI1 241207Z 35016KT 03/M05 A3007 RMK A01 T00281050  RH  056%=      5-min Rain = 0
KAI1 241208Z 35015KT 03/M05 A3007 RMK A01 T00281050  RH  057%=      5-min Rain = 0
KAI1 241209Z 36017KT 03/M05 A3007 RMK A01 T00281049  RH  057%=      5-min Rain = 0
KAI1 241210Z 36016KT 03/M05 A3007 RMK A01 T00291049  RH  057%=      5-min Rain = 0
KAI1 241211Z 35015KT 03/M05 A3007 RMK A01 T00291049  RH  056%=      5-min Rain = 0
KAI1 241212Z 36018KT 03/M05 A3007 RMK A01 T00291049  RH  056%=      5-min Rain = 0
KAI1 241213Z 35015KT 03/M05 A3007 RMK A01 T00291049  RH  056%=      5-min Rain = 0
KAI1 241214Z 35015KT 03/M05 A3007 RMK A01 T00291049  RH  056%=      5-min Rain = 0
KAI1 241215Z 35015KT 03/M05 A3007 RMK A01 T00281050  RH  056%=      5-min Rain = 0
KAI1 241216Z 35015KT 03/M05 A3007 RMK A01 T00281050  RH  057%=      5-min Rain = 0
KAI1 241217Z 35015KT 03/M05 A3007 RMK A01 T00271050  RH  057%=      5-min Rain = 0
KAI1 241218Z 35015KT 03/M05 A3007 RMK A01 T00271050  RH  057%=      5-min Rain = 0
KAI1 241219Z 35015KT 03/M05 A3008 RMK A01 T00271050  RH  057%=      5-min Rain = 0
KAI1 241220Z 35014KT 03/M05 A3008 RMK A01 T00261050  RH  057%=      5-min Rain = 0
KAI1 241221Z 35015KT 03/M05 A3008 RMK A01 T00261050  RH  057%=      5-min Rain = 0
KAI1 241222Z 35014KT 03/M05 A3008 RMK A01 T00261049  RH  058%=      5-min Rain = 0
KAI1 241223Z 35015G20KT 03/M05 A3008 RMK A01 T00251050  RH  058%=      5-min Rain = 0
KAI1 241224Z 35014KT 03/M05 A3008 RMK A01 T00261049  RH  058%=      5-min Rain = 0
KAI1 241225Z 35017KT 03/M05 A3008 RMK A01 T00261049  RH  058%=      5-min Rain = 0
KAI1 241226Z 35015KT 03/M05 A3008 RMK A01 T00261049  RH  058%=      5-min Rain = 0
KAI1 241227Z 35015KT 03/M05 A3008 RMK A01 T00271049  RH  057%=      5-min Rain = 0
KAI1 241228Z 36016KT 03/M05 A3008 RMK A01 T00271049  RH  057%=      5-min Rain = 0
KAI1 241229Z 36017KT 03/M05 A3008 RMK A01 T00271049  RH  057%=      5-min Rain = 0
KAI1 241230Z 36019KT 03/M05 A3008 RMK A01 T00281048  RH  057%=      5-min Rain = 0
KAI1 241231Z 35020KT 03/M05 A3008 RMK A01 T00301048  RH  057%=      5-min Rain = 0
KAI1 241232Z 36019KT 03/M05 A3008 RMK A01 T00311048  RH  056%=      5-min Rain = 0
KAI1 241233Z 35019KT 03/M05 A3008 RMK A01 T00321048  RH  056%=      5-min Rain = 0
KAI1 241234Z 35017KT 03/M05 A3008 RMK A01 T00321048  RH  056%=      5-min Rain = 0
KAI1 241235Z 35017KT 03/M05 A3008 RMK A01 T00311049  RH  056%=      5-min Rain = 0
KAI1 241236Z 34018KT 03/M05 A3008 RMK A01 T00301049  RH  056%=      5-min Rain = 0
KAI1 241237Z 35016KT 03/M05 A3008 RMK A01 T00301048  RH  056%=      5-min Rain = 0
KAI1 241238Z 35016KT 03/M05 A3009 RMK A01 T00301048  RH  056%=      5-min Rain = 0
KAI1 241239Z 35016KT 03/M05 A3009 RMK A01 T00291048  RH  057%=      5-min Rain = 0
KAI1 241240Z 35017KT 03/M05 A3009 RMK A01 T00281049  RH  057%=      5-min Rain = 0
KAI1 241241Z 35016KT 03/M05 A3009 RMK A01 T00271049  RH  057%=      5-min Rain = 0
KAI1 241242Z 35017KT 03/M05 A3009 RMK A01 T00261049  RH  058%=      5-min Rain = 0
KAI1 241243Z 35015KT 03/M05 A3009 RMK A01 T00261049  RH  058%=      5-min Rain = 0
KAI1 241244Z 35017KT 03/M05 A3009 RMK A01 T00261049  RH  058%=      5-min Rain = 0
KAI1 241245Z 35015KT 03/M05 A3009 RMK A01 T00261048  RH  058%=      5-min Rain = 0
KAI1 241246Z 34015KT 03/M05 A3009 RMK A01 T00251049  RH  058%=      5-min Rain = 0
KAI1 241247Z 34015KT 03/M05 A3009 RMK A01 T00251049  RH  058%=      5-min Rain = 0
KAI1 241248Z 35016KT 03/M05 A3009 RMK A01 T00251048  RH  058%=      5-min Rain = 0
KAI1 241249Z 35016KT 03/M05 A3009 RMK A01 T00251048  RH  058%=      5-min Rain = 0
KAI1 241250Z 35016KT 03/M05 A301 RMK A01 T00251048  RH  058%=      5-min Rain = 0
KAI1 241251Z 35015KT 03/M05 A301 RMK A01 T00251048  RH  058%=      5-min Rain = 0
KAI1 241252Z 35016KT 03/M05 A301 RMK A01 T00251049  RH  058%=      5-min Rain = 0
KAI1 241253Z 35015KT 02/M05 A301 RMK A01 T00241049  RH  059%=      5-min Rain = 0
KAI1 241254Z 35015KT 02/M05 A301 RMK A01 T00241049  RH  058%=      5-min Rain = 0
KAI1 241255Z 35015KT 02/M05 A301 RMK A01 T00241049  RH  059%=      5-min Rain = 0
KAI1 241256Z 35014KT 02/M05 A301 RMK A01 T00231049  RH  059%=      5-min Rain = 0
KAI1 241257Z 35015KT 02/M05 A301 RMK A01 T00221049  RH  059%=      5-min Rain = 0
KAI1 241258Z 35014KT 02/M05 A301 RMK A01 T00221049  RH  059%=      5-min Rain = 0
KAI1 241259Z 35014KT 02/M05 A301 RMK A01 T00221049  RH  059%=      5-min Rain = 0
KAI1 241300Z 35016KT 02/M05 A301 RMK A01 T00221049  RH  060%=      5-min Rain = 0
KAI1 241301Z 35016KT 02/M05 A301 RMK A01 T00221049  RH  059%=      5-min Rain = 0
KAI1 241302Z 35015KT 02/M05 A301 RMK A01 T00221049  RH  059%=      5-min Rain = 0
KAI1 241303Z 36017KT 02/M05 A301 RMK A01 T00221049  RH  059%=      5-min Rain = 0
KAI1 241304Z 35016KT 02/M05 A301 RMK A01 T00221049  RH  059%=      5-min Rain = 0
KAI1 241305Z 36016KT 02/M05 A301 RMK A01 T00221049  RH  059%=      5-min Rain = 0
KAI1 241306Z 36016KT 02/M05 A301 RMK A01 T00221050  RH  059%=      5-min Rain = 0
KAI1 241307Z 36015KT 02/M05 A301 RMK A01 T00221050  RH  059%=      5-min Rain = 0
KAI1 241308Z 35017KT 02/M05 A301 RMK A01 T00221050  RH  059%=      5-min Rain = 0
KAI1 241309Z 36016KT 02/M05 A301 RMK A01 T00221050  RH  059%=      5-min Rain = 0
KAI1 241310Z 36016KT 02/M05 A301 RMK A01 T00231049  RH  059%=      5-min Rain = 0
KAI1 241311Z 35017KT 02/M05 A301 RMK A01 T00221050  RH  059%=      5-min Rain = 0
KAI1 241312Z 35016KT 02/M05 A301 RMK A01 T00221050  RH  059%=      5-min Rain = 0
KAI1 241313Z 36016KT 02/M05 A301 RMK A01 T00231049  RH  059%=      5-min Rain = 0
KAI1 241314Z 36016KT 02/M05 A301 RMK A01 T00231049  RH  059%=      5-min Rain = 0
KAI1 241315Z 00016KT 02/M05 A301 RMK A01 T00221050  RH  059%=      5-min Rain = 0
KAI1 241316Z 36016KT 02/M05 A3011 RMK A01 T00221050  RH  059%=      5-min Rain = 0
KAI1 241317Z 00015KT 02/M05 A3011 RMK A01 T00211050  RH  059%=      5-min Rain = 0
KAI1 241318Z 00016KT 02/M05 A3011 RMK A01 T00211050  RH  059%=      5-min Rain = 0
KAI1 241319Z 00017KT 02/M05 A3011 RMK A01 T00211050  RH  060%=      5-min Rain = 0
KAI1 241320Z 36019KT 02/M05 A3011 RMK A01 T00211049  RH  060%=      5-min Rain = 0
KAI1 241321Z 36018KT 02/M05 A3011 RMK A01 T00221049  RH  059%=      5-min Rain = 0
KAI1 241322Z 00019KT 02/M05 A3011 RMK A01 T00221049  RH  059%=      5-min Rain = 0
KAI1 241323Z 35016KT 02/M05 A3011 RMK A01 T00231049  RH  059%=      5-min Rain = 0
KAI1 241324Z 35016KT 02/M05 A3011 RMK A01 T00231049  RH  059%=      5-min Rain = 0
KAI1 241325Z 35015KT 02/M05 A3011 RMK A01 T00221050  RH  059%=      5-min Rain = 0
KAI1 241326Z 36016KT 02/M05 A3011 RMK A01 T00211050  RH  060%=      5-min Rain = 0
KAI1 241327Z 36015KT 02/M05 A3011 RMK A01 T00201050  RH  060%=      5-min Rain = 0
KAI1 241328Z 36017KT 02/M05 A3011 RMK A01 T00201050  RH  060%=      5-min Rain = 0
KAI1 241329Z 36017KT 02/M05 A3011 RMK A01 T00201049  RH  060%=      5-min Rain = 0
KAI1 241330Z 36016KT 02/M05 A3011 RMK A01 T00211049  RH  060%=      5-min Rain = 0
KAI1 241331Z 36016KT 02/M05 A3012 RMK A01 T00211049  RH  060%=      5-min Rain = 0
KAI1 241332Z 35016KT 02/M05 A3012 RMK A01 T00201049  RH  060%=      5-min Rain = 0
KAI1 241333Z 35017KT 02/M05 A3012 RMK A01 T00201049  RH  060%=      5-min Rain = 0
KAI1 241334Z 35016KT 02/M05 A3012 RMK A01 T00201049  RH  060%=      5-min Rain = 0
KAI1 241335Z 36016KT 02/M05 A3012 RMK A01 T00201049  RH  060%=      5-min Rain = 0
KAI1 241336Z 35017KT 02/M05 A3012 RMK A01 T00201049  RH  060%=      5-min Rain = 0
KAI1 241337Z 35017KT 02/M05 A3012 RMK A01 T00201048  RH  061%=      5-min Rain = 0
KAI1 241338Z 36017KT 02/M05 A3012 RMK A01 T00201048  RH  061%=      5-min Rain = 0
KAI1 241339Z 35015KT 02/M05 A3012 RMK A01 T00201048  RH  060%=      5-min Rain = 0
KAI1 241340Z 35016KT 02/M05 A3012 RMK A01 T00201048  RH  061%=      5-min Rain = 0
KAI1 241341Z 35015KT 02/M05 A3012 RMK A01 T00201048  RH  061%=      5-min Rain = 0
KAI1 241342Z 35016KT 02/M05 A3013 RMK A01 T00191048  RH  061%=      5-min Rain = 0
KAI1 241343Z 35017KT 02/M05 A3013 RMK A01 T00201048  RH  061%=      5-min Rain = 0
KAI1 241344Z 35016KT 02/M05 A3013 RMK A01 T00191048  RH  061%=      5-min Rain = 0
KAI1 241345Z 35017KT 02/M05 A3013 RMK A01 T00191048  RH  061%=      5-min Rain = 0
KAI1 241346Z 35016KT 02/M05 A3013 RMK A01 T00191048  RH  061%=      5-min Rain = 0
KAI1 241347Z 35017KT 02/M05 A3013 RMK A01 T00201047  RH  061%=      5-min Rain = 0
KAI1 241348Z 35017KT 02/M05 A3013 RMK A01 T00201047  RH  061%=      5-min Rain = 0
KAI1 241349Z 35015KT 02/M05 A3013 RMK A01 T00201047  RH  061%=      5-min Rain = 0
KAI1 241350Z 36016KT 02/M05 A3013 RMK A01 T00201047  RH  061%=      5-min Rain = 0
KAI1 241351Z 35016KT 02/M05 A3013 RMK A01 T00201047  RH  061%=      5-min Rain = 0
KAI1 241352Z 35016KT 02/M05 A3013 RMK A01 T00201047  RH  061%=      5-min Rain = 0
KAI1 241353Z 35017KT 02/M05 A3013 RMK A01 T00201047  RH  061%=      5-min Rain = 0
KAI1 241354Z 35015KT 02/M05 A3013 RMK A01 T00201047  RH  061%=      5-min Rain = 0
KAI1 241355Z 35015KT 02/M05 A3013 RMK A01 T00201046  RH  061%=      5-min Rain = 0
KAI1 241356Z 35015KT 02/M05 A3013 RMK A01 T00201047  RH  061%=      5-min Rain = 0
KAI1 241357Z 35017KT 02/M05 A3013 RMK A01 T00201046  RH  061%=      5-min Rain = 0
KAI1 241358Z 35017KT 02/M05 A3014 RMK A01 T00201046  RH  061%=      5-min Rain = 0
KAI1 241359Z 35016KT 02/M05 A3014 RMK A01 T00201046  RH  061%=      5-min Rain = 0
KAI1 241400Z 35017KT 02/M05 A3014 RMK A01 T00201046  RH  061%=      5-min Rain = 0
KAI1 241401Z 35016KT 02/M05 A3014 RMK A01 T00211046  RH  061%=      5-min Rain = 0
KAI1 241402Z 36020KT 02/M05 A3014 RMK A01 T00211045  RH  062%=      5-min Rain = 0
KAI1 241403Z 36019G25KT 02/M05 A3014 RMK A01 T00221045  RH  061%=      5-min Rain = 0
KAI1 241404Z 36020KT 02/M04 A3014 RMK A01 T00231044  RH  061%=      5-min Rain = 0
KAI1 241405Z 35019KT 02/M04 A3014 RMK A01 T00231044  RH  061%=      5-min Rain = 0
KAI1 241406Z 35020KT 02/M04 A3014 RMK A01 T00241043  RH  061%=      5-min Rain = 0
KAI1 241407Z 35017KT 03/M04 A3014 RMK A01 T00251044  RH  061%=      5-min Rain = 0
KAI1 241408Z 35017KT 03/M04 A3014 RMK A01 T00251043  RH  061%=      5-min Rain = 0
KAI1 241409Z 34017KT 02/M04 A3014 RMK A01 T00241043  RH  061%=      5-min Rain = 0
KAI1 241410Z 35015KT 03/M04 A3015 RMK A01 T00251043  RH  061%=      5-min Rain = 0
KAI1 241411Z 34015KT 03/M04 A3015 RMK A01 T00251042  RH  061%=      5-min Rain = 0
KAI1 241412Z 35015KT 02/M04 A3014 RMK A01 T00241043  RH  061%=      5-min Rain = 0
KAI1 241413Z 35016G22KT 02/M04 A3014 RMK A01 T00241043  RH  061%=      5-min Rain = 0
KAI1 241414Z 36016KT 02/M04 A3015 RMK A01 T00241043  RH  061%=      5-min Rain = 0
KAI1 241415Z 36017G23KT 03/M04 A3015 RMK A01 T00251042  RH  061%=      5-min Rain = 0
KAI1 241416Z 35019KT 03/M04 A3015 RMK A01 T00261042  RH  061%=      5-min Rain = 0
KAI1 241417Z 35018KT 03/M04 A3015 RMK A01 T00271042  RH  061%=      5-min Rain = 0
KAI1 241418Z 35021KT 03/M04 A3015 RMK A01 T00271042  RH  060%=      5-min Rain = 0
KAI1 241419Z 36020KT 03/M04 A3015 RMK A01 T00271042  RH  060%=      5-min Rain = 0
KAI1 241420Z 36018KT 03/M04 A3015 RMK A01 T00271042  RH  060%=      5-min Rain = 0
KAI1 241421Z 36019KT 03/M04 A3015 RMK A01 T00271042  RH  060%=      5-min Rain = 0
KAI1 241422Z 35018G24KT 03/M04 A3015 RMK A01 T00271042  RH  060%=      5-min Rain = 0
KAI1 241423Z 36020KT 03/M04 A3015 RMK A01 T00271042  RH  060%=      5-min Rain = 0
KAI1 241424Z 35017KT 03/M04 A3015 RMK A01 T00271042  RH  060%=      5-min Rain = 0
KAI1 241425Z 35019KT 03/M04 A3015 RMK A01 T00281042  RH  060%=      5-min Rain = 0
KAI1 241426Z 36018KT 03/M04 A3015 RMK A01 T00281042  RH  060%=      5-min Rain = 0
KAI1 241427Z 36018KT 03/M04 A3016 RMK A01 T00291041  RH  060%=      5-min Rain = 0
KAI1 241428Z 35018KT 03/M04 A3015 RMK A01 T00291042  RH  060%=      5-min Rain = 0
KAI1 241429Z 35020KT 03/M04 A3016 RMK A01 T00301041  RH  059%=      5-min Rain = 0
KAI1 241430Z 36020KT 03/M04 A3016 RMK A01 T00301042  RH  059%=      5-min Rain = 0
KAI1 241431Z 36017KT 03/M04 A3016 RMK A01 T00311041  RH  059%=      5-min Rain = 0
KAI1 241432Z 35017G22KT 03/M04 A3016 RMK A01 T00321040  RH  059%=      5-min Rain = 0
KAI1 241433Z 36017KT 03/M04 A3016 RMK A01 T00321041  RH  059%=      5-min Rain = 0
KAI1 241434Z 36018KT 03/M04 A3016 RMK A01 T00331040  RH  059%=      5-min Rain = 0
KAI1 241435Z 36020KT 03/M04 A3016 RMK A01 T00341040  RH  059%=      5-min Rain = 0
KAI1 241436Z 35018KT 03/M04 A3016 RMK A01 T00341041  RH  058%=      5-min Rain = 0
KAI1 241437Z 35016KT 03/M04 A3016 RMK A01 T00341041  RH  058%=      5-min Rain = 0
KAI1 241438Z 36019G25KT 03/M04 A3016 RMK A01 T00341040  RH  058%=      5-min Rain = 0
KAI1 241439Z 36017KT 03/M04 A3016 RMK A01 T00341041  RH  058%=      5-min Rain = 0
KAI1 241440Z 00021KT 04/M04 A3016 RMK A01 T00351040  RH  058%=      5-min Rain = 0
KAI1 241441Z 36021KT 04/M04 A3016 RMK A01 T00351041  RH  058%=      5-min Rain = 0
KAI1 241442Z 36019KT 04/M04 A3016 RMK A01 T00361041  RH  057%=      5-min Rain = 0
KAI1 241443Z 36020KT 04/M04 A3016 RMK A01 T00371040  RH  058%=      5-min Rain = 0
KAI1 241444Z 36022KT 04/M04 A3016 RMK A01 T00381040  RH  057%=      5-min Rain = 0
KAI1 241445Z 00020KT 04/M04 A3016 RMK A01 T00371041  RH  057%=      5-min Rain = 0
KAI1 241446Z 01020KT 04/M04 A3016 RMK A01 T00381040  RH  057%=      5-min Rain = 0
KAI1 241447Z 01021KT 04/M04 A3016 RMK A01 T00381040  RH  057%=      5-min Rain = 0
KAI1 241448Z 36023KT 04/M04 A3017 RMK A01 T00391041  RH  056%=      5-min Rain = 0
KAI1 241449Z 00022G27KT 04/M04 A3017 RMK A01 T00381042  RH  056%=      5-min Rain = 0
KAI1 241450Z 00021G26KT 04/M04 A3017 RMK A01 T00381042  RH  056%=      5-min Rain = 0
KAI1 241451Z 00023KT 04/M04 A3017 RMK A01 T00391042  RH  056%=      5-min Rain = 0
KAI1 241452Z 00020KT 04/M04 A3017 RMK A01 T00391042  RH  056%=      5-min Rain = 0
KAI1 241453Z 00021KT 04/M04 A3017 RMK A01 T00401042  RH  055%=      5-min Rain = 0
KAI1 241454Z 00022KT 04/M04 A3017 RMK A01 T00401042  RH  055%=      5-min Rain = 0
KAI1 241455Z 00020KT 04/M04 A3017 RMK A01 T00401043  RH  055%=      5-min Rain = 0
KAI1 241456Z 00020KT 04/M04 A3017 RMK A01 T00401042  RH  055%=      5-min Rain = 0
KAI1 241457Z 00022KT 04/M04 A3018 RMK A01 T00411042  RH  055%=      5-min Rain = 0
KAI1 241458Z 01023KT 04/M04 A3018 RMK A01 T00411043  RH  054%=      5-min Rain = 0
KAI1 241459Z 00022KT 04/M04 A3018 RMK A01 T00411043  RH  054%=      5-min Rain = 0
KAI1 241500Z 00023G28KT 04/M04 A3018 RMK A01 T00411043  RH  054%=      5-min Rain = 0
KAI1 241501Z 01020KT 04/M04 A3018 RMK A01 T00421043  RH  054%=      5-min Rain = 0
KAI1 241502Z 01021KT 04/M04 A3018 RMK A01 T00421043  RH  054%=      5-min Rain = 0
KAI1 241503Z 00022KT 04/M04 A3018 RMK A01 T00421043  RH  054%=      5-min Rain = 0
KAI1 241504Z 00021KT 04/M04 A3018 RMK A01 T00421044  RH  053%=      5-min Rain = 0
KAI1 241505Z 00018KT 04/M04 A3018 RMK A01 T00431044  RH  053%=      5-min Rain = 0
KAI1 241506Z 01019KT 04/M04 A3018 RMK A01 T00441042  RH  053%=      5-min Rain = 0
KAI1 241507Z 00019KT 05/M04 A3019 RMK A01 T00451042  RH  053%=      5-min Rain = 0
KAI1 241508Z 35021G26KT 05/M04 A3019 RMK A01 T00461042  RH  053%=      5-min Rain = 0
KAI1 241509Z 00021KT 05/M04 A3019 RMK A01 T00471043  RH  052%=      5-min Rain = 0
KAI1 241510Z 00020KT 05/M04 A3019 RMK A01 T00461044  RH  052%=      5-min Rain = 0
KAI1 241511Z 00019KT 05/M04 A3019 RMK A01 T00461044  RH  052%=      5-min Rain = 0
KAI1 241512Z 00021KT 05/M04 A3019 RMK A01 T00461043  RH  052%=      5-min Rain = 0
KAI1 241513Z 36021KT 05/M04 A3019 RMK A01 T00461044  RH  052%=      5-min Rain = 0
KAI1 241514Z 00022KT 05/M05 A3019 RMK A01 T00461045  RH  052%=      5-min Rain = 0
KAI1 241515Z 00021KT 05/M05 A3019 RMK A01 T00461045  RH  052%=      5-min Rain = 0
KAI1 241516Z 01023KT 05/M05 A3019 RMK A01 T00461045  RH  052%=      5-min Rain = 0
KAI1 241517Z 01022KT 05/M05 A3019 RMK A01 T00461045  RH  052%=      5-min Rain = 0
KAI1 241518Z 01021KT 05/M05 A3019 RMK A01 T00461045  RH  052%=      5-min Rain = 0
KAI1 241519Z 00022KT 05/M04 A3019 RMK A01 T00471044  RH  052%=      5-min Rain = 0
KAI1 241520Z 00022KT 05/M05 A3019 RMK A01 T00481045  RH  051%=      5-min Rain = 0
KAI1 241521Z 00023KT 05/M05 A3019 RMK A01 T00481046  RH  051%=      5-min Rain = 0
KAI1 241522Z 00022KT 05/M05 A3019 RMK A01 T00471045  RH  051%=      5-min Rain = 0
KAI1 241523Z 35022KT 05/M05 A3019 RMK A01 T00481045  RH  051%=      5-min Rain = 0
KAI1 241524Z 00020KT 05/M05 A302 RMK A01 T00481046  RH  051%=      5-min Rain = 0
KAI1 241525Z 36018KT 05/M05 A302 RMK A01 T00481045  RH  051%=      5-min Rain = 0
KAI1 241526Z 00020KT 05/M05 A302 RMK A01 T00491045  RH  051%=      5-min Rain = 0
KAI1 241527Z 00021KT 05/M05 A302 RMK A01 T00501045  RH  050%=      5-min Rain = 0
KAI1 241528Z 01018KT 05/M05 A302 RMK A01 T00501045  RH  050%=      5-min Rain = 0
KAI1 241529Z 01019KT 05/M04 A302 RMK A01 T00521044  RH  050%=      5-min Rain = 0
KAI1 241530Z 00017KT 05/M04 A302 RMK A01 T00521044  RH  050%=      5-min Rain = 0
KAI1 241531Z 01021KT 05/M04 A302 RMK A01 T00531043  RH  050%=      5-min Rain = 0
KAI1 241532Z 01019KT 05/M04 A302 RMK A01 T00531044  RH  050%=      5-min Rain = 0
KAI1 241533Z 01022KT 05/M05 A302 RMK A01 T00521045  RH  050%=      5-min Rain = 0
KAI1 241534Z 01021KT 05/M05 A302 RMK A01 T00511046  RH  049%=      5-min Rain = 0
KAI1 241535Z 01021KT 05/M05 A302 RMK A01 T00511046  RH  050%=      5-min Rain = 0
KAI1 241536Z 02023KT 05/M05 A302 RMK A01 T00511045  RH  050%=      5-min Rain = 0
KAI1 241537Z 02021KT 05/M05 A302 RMK A01 T00511045  RH  050%=      5-min Rain = 0
KAI1 241538Z 01021KT 05/M05 A302 RMK A01 T00511045  RH  050%=      5-min Rain = 0
KAI1 241539Z 01021KT 05/M05 A302 RMK A01 T00511046  RH  050%=      5-min Rain = 0
KAI1 241540Z 01022KT 05/M05 A302 RMK A01 T00511045  RH  050%=      5-min Rain = 0
KAI1 241541Z 01019KT 05/M04 A302 RMK A01 T00521044  RH  050%=      5-min Rain = 0
KAI1 241542Z 01020KT 05/M04 A302 RMK A01 T00541043  RH  050%=      5-min Rain = 0
KAI1 241543Z 01020KT 06/M04 A302 RMK A01 T00561042  RH  049%=      5-min Rain = 0
KAI1 241544Z 01020KT 06/M04 A302 RMK A01 T00561044  RH  049%=      5-min Rain = 0
KAI1 241545Z 01018KT 06/M04 A302 RMK A01 T00561044  RH  049%=      5-min Rain = 0
KAI1 241546Z 36021KT 06/M04 A302 RMK A01 T00571042  RH  049%=      5-min Rain = 0
KAI1 241547Z 00021KT 06/M04 A302 RMK A01 T00571044  RH  048%=      5-min Rain = 0
KAI1 241548Z 00020KT 06/M04 A302 RMK A01 T00561044  RH  048%=      5-min Rain = 0
KAI1 241549Z 01018KT 06/M04 A302 RMK A01 T00571043  RH  049%=      5-min Rain = 0
KAI1 241550Z 01020KT 06/M04 A302 RMK A01 T00581043  RH  048%=      5-min Rain = 0
KAI1 241551Z 00019KT 06/M04 A302 RMK A01 T00581044  RH  048%=      5-min Rain = 0
KAI1 241552Z 00019KT 06/M04 A302 RMK A01 T00581043  RH  048%=      5-min Rain = 0
KAI1 241553Z 00019KT 06/M04 A302 RMK A01 T00591043  RH  048%=      5-min Rain = 0
KAI1 241554Z 01018KT 06/M04 A302 RMK A01 T00601043  RH  048%=      5-min Rain = 0
KAI1 241555Z 00018KT 06/M04 A302 RMK A01 T00601043  RH  048%=      5-min Rain = 0
KAI1 241556Z 36021KT 06/M04 A302 RMK A01 T00601043  RH  048%=      5-min Rain = 0
KAI1 241557Z 36021KT 06/M04 A302 RMK A01 T00601043  RH  047%=      5-min Rain = 0
KAI1 241558Z 00020KT 06/M04 A302 RMK A01 T00601044  RH  047%=      5-min Rain = 0
KAI1 241559Z 01022KT 06/M04 A302 RMK A01 T00611044  RH  047%=      5-min Rain = 0
KAI1 241600Z 00023KT 06/M04 A302 RMK A01 T00621044  RH  047%=      5-min Rain = 0
KAI1 241601Z 02018KT 06/M04 A302 RMK A01 T00621044  RH  046%=      5-min Rain = 0
KAI1 241602Z 01020KT 06/M04 A302 RMK A01 T00631043  RH  047%=      5-min Rain = 0
KAI1 241603Z 01020KT 06/M04 A302 RMK A01 T00641043  RH  046%=      5-min Rain = 0
KAI1 241604Z 01021KT 07/M04 A302 RMK A01 T00651044  RH  046%=      5-min Rain = 0
KAI1 241605Z 02019KT 07/M04 A302 RMK A01 T00651043  RH  046%=      5-min Rain = 0
KAI1 241606Z 01019KT 07/M04 A302 RMK A01 T00661043  RH  046%=      5-min Rain = 0
KAI1 241607Z 01016G21KT 07/M04 A302 RMK A01 T00671042  RH  046%=      5-min Rain = 0
KAI1 241608Z 01018KT 07/M04 A302 RMK A01 T00691042  RH  045%=      5-min Rain = 0
KAI1 241609Z 02019KT 07/M04 A302 RMK A01 T00681044  RH  045%=      5-min Rain = 0
KAI1 241610Z 01019KT 07/M04 A302 RMK A01 T00671044  RH  045%=      5-min Rain = 0
KAI1 241611Z 01019KT 07/M04 A302 RMK A01 T00671044  RH  045%=      5-min Rain = 0
KAI1 241612Z 01018KT 07/M04 A302 RMK A01 T00671044  RH  045%=      5-min Rain = 0
KAI1 241613Z 01019KT 07/M04 A302 RMK A01 T00671044  RH  045%=      5-min Rain = 0
KAI1 241614Z 01019KT 07/M05 A302 RMK A01 T00661045  RH  045%=      5-min Rain = 0
KAI1 241615Z 02018G23KT 07/M04 A302 RMK A01 T00661044  RH  046%=      5-min Rain = 0
KAI1 241616Z 01018KT 07/M04 A302 RMK A01 T00681042  RH  045%=      5-min Rain = 0
KAI1 241617Z 01017KT 07/M04 A302 RMK A01 T00671044  RH  045%=      5-min Rain = 0
KAI1 241618Z 01018KT 07/M04 A302 RMK A01 T00681043  RH  045%=      5-min Rain = 0
KAI1 241619Z 01020KT 07/M04 A302 RMK A01 T00681044  RH  045%=      5-min Rain = 0
KAI1 241620Z 01019KT 07/M04 A302 RMK A01 T00681043  RH  045%=      5-min Rain = 0
KAI1 241621Z 02017KT 07/M04 A302 RMK A01 T00681043  RH  045%=      5-min Rain = 0
KAI1 241622Z 02019KT 07/M04 A302 RMK A01 T00681043  RH  045%=      5-min Rain = 0
KAI1 241623Z 01017KT 07/M04 A302 RMK A01 T00681043  RH  045%=      5-min Rain = 0
KAI1 241624Z 01019KT 07/M04 A302 RMK A01 T00691042  RH  045%=      5-min Rain = 0
KAI1 241625Z 01020KT 07/M04 A302 RMK A01 T00691043  RH  044%=      5-min Rain = 0
KAI1 241626Z 02018G24KT 07/M04 A302 RMK A01 T00681044  RH  045%=      5-min Rain = 0
KAI1 241627Z 02018KT 07/M04 A302 RMK A01 T00681044  RH  045%=      5-min Rain = 0
KAI1 241628Z 02018KT 07/M04 A302 RMK A01 T00691042  RH  045%=      5-min Rain = 0
KAI1 241629Z 01018KT 07/M04 A3021 RMK A01 T00711041  RH  045%=      5-min Rain = 0
KAI1 241630Z 01016KT 07/M04 A3021 RMK A01 T00711042  RH  044%=      5-min Rain = 0
KAI1 241631Z 02018KT 07/M04 A3021 RMK A01 T00721041  RH  044%=      5-min Rain = 0
KAI1 241632Z 01017KT 07/M04 A3021 RMK A01 T00711043  RH  044%=      5-min Rain = 0
KAI1 241633Z 01015KT 07/M04 A3021 RMK A01 T00701042  RH  045%=      5-min Rain = 0
KAI1 241634Z 02017KT 07/M04 A302 RMK A01 T00721040  RH  045%=      5-min Rain = 0
KAI1 241635Z 02017KT 07/M04 A302 RMK A01 T00731041  RH  044%=      5-min Rain = 0
KAI1 241636Z 02017KT 08/M04 A302 RMK A01 T00751039  RH  044%=      5-min Rain = 0
KAI1 241637Z 02015KT 08/M04 A302 RMK A01 T00771039  RH  044%=      5-min Rain = 0
KAI1 241638Z 03016KT 08/M04 A302 RMK A01 T00761042  RH  043%=      5-min Rain = 0
KAI1 241639Z 02017KT 07/M04 A302 RMK A01 T00741042  RH  043%=      5-min Rain = 0
KAI1 241640Z 01017KT 07/M04 A302 RMK A01 T00721043  RH  044%=      5-min Rain = 0
KAI1 241641Z 02017KT 07/M04 A302 RMK A01 T00731042  RH  044%=      5-min Rain = 0
KAI1 241642Z 02017KT 07/M04 A302 RMK A01 T00741040  RH  044%=      5-min Rain = 0
KAI1 241643Z 02017KT 08/M04 A302 RMK A01 T00771040  RH  043%=      5-min Rain = 0
KAI1 241644Z 01015KT 08/M04 A302 RMK A01 T00771040  RH  043%=      5-min Rain = 0
KAI1 241645Z 01016KT 08/M04 A302 RMK A01 T00781039  RH  043%=      5-min Rain = 0
KAI1 241646Z 00014KT 08/M04 A302 RMK A01 T00791039  RH  043%=      5-min Rain = 0
KAI1 241647Z 01015KT 08/M04 A302 RMK A01 T00801039  RH  043%=      5-min Rain = 0
KAI1 241648Z 02013KT 08/M04 A302 RMK A01 T00791042  RH  042%=      5-min Rain = 0
KAI1 241649Z 03016KT 08/M04 A302 RMK A01 T00771041  RH  043%=      5-min Rain = 0
KAI1 241650Z 03014KT 08/M04 A302 RMK A01 T00771041  RH  043%=      5-min Rain = 0
KAI1 241651Z 03013KT 08/M04 A302 RMK A01 T00791038  RH  043%=      5-min Rain = 0
KAI1 241652Z 03017KT 08/M04 A302 RMK A01 T00821038  RH  042%=      5-min Rain = 0
KAI1 241653Z 03015KT 08/M04 A302 RMK A01 T00811041  RH  042%=      5-min Rain = 0
KAI1 241654Z 03013KT 08/M04 A302 RMK A01 T00811039  RH  042%=      5-min Rain = 0
KAI1 241655Z 02015G20KT 09/M03 A302 RMK A01 T00871034  RH  042%=      5-min Rain = 0
KAI1 241656Z 03015KT 09/M04 A302 RMK A01 T00881038  RH  041%=      5-min Rain = 0
KAI1 241657Z 03014KT 09/M04 A302 RMK A01 T00861039  RH  041%=      5-min Rain = 0
KAI1 241658Z 02014KT 09/M04 A302 RMK A01 T00871038  RH  041%=      5-min Rain = 0
KAI1 241659Z 03015KT 09/M04 A302 RMK A01 T00861040  RH  041%=      5-min Rain = 0
KAI1 241700Z 03015KT 09/M04 A302 RMK A01 T00871039  RH  041%=      5-min Rain = 0
KAI1 241701Z 02016KT 09/M04 A3021 RMK A01 T00871039  RH  041%=      5-min Rain = 0
KAI1 241702Z 02015KT 09/M04 A3021 RMK A01 T00871040  RH  040%=      5-min Rain = 0
KAI1 241703Z 02014KT 09/M04 A3021 RMK A01 T00871039  RH  041%=      5-min Rain = 0
KAI1 241704Z 04016KT 09/M04 A3021 RMK A01 T00861041  RH  040%=      5-min Rain = 0
KAI1 241705Z 04017KT 09/M04 A3021 RMK A01 T00861040  RH  041%=      5-min Rain = 0
KAI1 241706Z 03015KT 09/M04 A3021 RMK A01 T00871040  RH  041%=      5-min Rain = 0
KAI1 241707Z 04016KT 09/M04 A3021 RMK A01 T00871040  RH  040%=      5-min Rain = 0
KAI1 241708Z 04013KT 09/M04 A3021 RMK A01 T00871040  RH  040%=      5-min Rain = 0
KAI1 241709Z 03013KT 09/M04 A302 RMK A01 T00871040  RH  040%=      5-min Rain = 0
KAI1 241710Z 03012G19KT 09/M04 A302 RMK A01 T00881038  RH  041%=      5-min Rain = 0
KAI1 241711Z 04016KT 09/M04 A302 RMK A01 T00911036  RH  041%=      5-min Rain = 0
KAI1 241712Z 04015KT 09/M04 A302 RMK A01 T00901039  RH  040%=      5-min Rain = 0
KAI1 241713Z 04014KT 09/M04 A302 RMK A01 T00891039  RH  040%=      5-min Rain = 0
KAI1 241714Z 03015KT 09/M04 A302 RMK A01 T00881039  RH  040%=      5-min Rain = 0
KAI1 241715Z 02014KT 09/M03 A302 RMK A01 T00921034  RH  041%=      5-min Rain = 0
KAI1 241716Z 02013KT 10/M04 A302 RMK A01 T00951036  RH  039%=      5-min Rain = 0
KAI1 241717Z 04015KT 10/M03 A302 RMK A01 T00961034  RH  040%=      5-min Rain = 0
KAI1 241718Z 05017KT 10/M04 A302 RMK A01 T00961039  RH  038%=      5-min Rain = 0
KAI1 241719Z 04016KT 09/M04 A302 RMK A01 T00931041  RH  039%=      5-min Rain = 0
KAI1 241720Z 03013KT 09/M04 A302 RMK A01 T00901042  RH  039%=      5-min Rain = 0
KAI1 241721Z 03012KT 09/M04 A302 RMK A01 T00891039  RH  040%=      5-min Rain = 0
KAI1 241722Z 04013G23KT 09/M04 A302 RMK A01 T00911036  RH  041%=      5-min Rain = 0
KAI1 241723Z 02014G22KT 10/M04 A302 RMK A01 T00961035  RH  039%=      5-min Rain = 0
KAI1 241724Z 03015KT 10/M04 A302 RMK A01 T00961036  RH  039%=      5-min Rain = 0
KAI1 241725Z 04013KT 10/M04 A302 RMK A01 T00961038  RH  038%=      5-min Rain = 0
KAI1 241726Z 03012KT 09/M04 A302 RMK A01 T00931040  RH  039%=      5-min Rain = 0
KAI1 241727Z 04014KT 09/M04 A302 RMK A01 T00921039  RH  039%=      5-min Rain = 0
KAI1 241728Z 03012KT 09/M04 A302 RMK A01 T00911040  RH  039%=      5-min Rain = 0
KAI1 241729Z 02014KT 09/M04 A302 RMK A01 T00911038  RH  040%=      5-min Rain = 0
KAI1 241730Z 02013KT 10/M04 A302 RMK A01 T00951035  RH  040%=      5-min Rain = 0
KAI1 241731Z 03013KT 10/M04 A302 RMK A01 T00961038  RH  039%=      5-min Rain = 0
KAI1 241732Z 05013KT 10/M04 A302 RMK A01 T00951037  RH  039%=      5-min Rain = 0
KAI1 241733Z 04014KT 10/M04 A302 RMK A01 T00971036  RH  039%=      5-min Rain = 0
KAI1 241734Z 03016KT 10/M04 A302 RMK A01 T00991035  RH  039%=      5-min Rain = 0
KAI1 241735Z 04013KT 10/M04 A302 RMK A01 T01001036  RH  038%=      5-min Rain = 0
KAI1 241736Z 05012KT 10/M04 A302 RMK A01 T00991037  RH  038%=      5-min Rain = 0
KAI1 241737Z 05013KT 10/M04 A302 RMK A01 T00971038  RH  038%=      5-min Rain = 0
KAI1 241738Z 03013KT 10/M04 A302 RMK A01 T00961039  RH  038%=      5-min Rain = 0
KAI1 241739Z 05013G18KT 10/M04 A302 RMK A01 T00991035  RH  039%=      5-min Rain = 0
KAI1 241740Z 04014KT 10/M04 A302 RMK A01 T01001037  RH  038%=      5-min Rain = 0
KAI1 241741Z 04015KT 10/M04 A302 RMK A01 T00991038  RH  038%=      5-min Rain = 0
KAI1 241742Z 03015KT 10/M04 A302 RMK A01 T00971038  RH  038%=      5-min Rain = 0
KAI1 241743Z 03016KT 10/M04 A302 RMK A01 T00971038  RH  038%=      5-min Rain = 0
KAI1 241744Z 05016KT 10/M04 A302 RMK A01 T00971039  RH  038%=      5-min Rain = 0
KAI1 241745Z 04015KT 10/M04 A302 RMK A01 T00991038  RH  038%=      5-min Rain = 0
KAI1 241746Z 04012KT 10/M04 A302 RMK A01 T00981041  RH  037%=      5-min Rain = 0
KAI1 241747Z 04011KT 10/M04 A302 RMK A01 T00971038  RH  038%=      5-min Rain = 0
KAI1 241748Z 04016KT 10/M04 A302 RMK A01 T00991037  RH  038%=      5-min Rain = 0
KAI1 241749Z 03013KT 10/M04 A302 RMK A01 T01001038  RH  038%=      5-min Rain = 0
KAI1 241750Z 04014G19KT 10/M04 A302 RMK A01 T01021038  RH  037%=      5-min Rain = 0
KAI1 241751Z 03012KT 10/M04 A302 RMK A01 T01021038  RH  037%=      5-min Rain = 0
KAI1 241752Z 03017KT 10/M04 A302 RMK A01 T01001038  RH  038%=      5-min Rain = 0
KAI1 241753Z 03013KT 10/M04 A302 RMK A01 T00991038  RH  038%=      5-min Rain = 0
KAI1 241754Z 05015KT 10/M04 A302 RMK A01 T00991037  RH  038%=      5-min Rain = 0
KAI1 241755Z 04017KT 10/M04 A302 RMK A01 T01021037  RH  037%=      5-min Rain = 0
KAI1 241756Z 05013KT 10/M04 A302 RMK A01 T00981043  RH  037%=      5-min Rain = 0
KAI1 241757Z 06014KT 10/M04 A302 RMK A01 T00951041  RH  038%=      5-min Rain = 0
KAI1 241758Z 03014KT 10/M04 A302 RMK A01 T00971039  RH  038%=      5-min Rain = 0
KAI1 241759Z 04013KT 10/M04 A302 RMK A01 T00981039  RH  038%=      5-min Rain = 0
KAI1 241800Z 05015G20KT 10/M04 A302 RMK A01 T01021038  RH  037%=      5-min Rain = 0
KAI1 241801Z 05013KT 10/M04 A302 RMK A01 T01011041  RH  037%=      5-min Rain = 0
KAI1 241802Z 05012KT 10/M04 A302 RMK A01 T01011039  RH  037%=      5-min Rain = 0
KAI1 241803Z 03015KT 10/M04 A302 RMK A01 T01021037  RH  037%=      5-min Rain = 0
KAI1 241804Z 04013KT 10/M04 A302 RMK A01 T01011041  RH  037%=      5-min Rain = 0
KAI1 241805Z 03012KT 10/M04 A302 RMK A01 T01001040  RH  037%=      5-min Rain = 0
KAI1 241806Z 03010KT 10/M04 A302 RMK A01 T01001039  RH  038%=      5-min Rain = 0
KAI1 241807Z 02013KT 10/M04 A3019 RMK A01 T00991038  RH  038%=      5-min Rain = 0
KAI1 241808Z 03015KT 10/M04 A3019 RMK A01 T01031036  RH  037%=      5-min Rain = 0
KAI1 241809Z 04013KT 11/M04 A302 RMK A01 T01061035  RH  037%=      5-min Rain = 0
KAI1 241810Z 04015KT 11/M04 A302 RMK A01 T01081037  RH  036%=      5-min Rain = 0
KAI1 241811Z 04015KT 11/M04 A302 RMK A01 T01061041  RH  035%=      5-min Rain = 0
KAI1 241812Z 03013KT 10/M04 A302 RMK A01 T01041043  RH  035%=      5-min Rain = 0
KAI1 241813Z 04015KT 10/M04 A302 RMK A01 T01041041  RH  036%=      5-min Rain = 0
KAI1 241814Z 04012KT 10/M04 A302 RMK A01 T01021043  RH  036%=      5-min Rain = 0
KAI1 241815Z 06009KT 10/M04 A3019 RMK A01 T01001043  RH  036%=      5-min Rain = 0
KAI1 241816Z 04010KT 10/M04 A3019 RMK A01 T00991040  RH  037%=      5-min Rain = 0
KAI1 241817Z 04013G18KT 11/M03 A3019 RMK A01 T01051034  RH  037%=      5-min Rain = 0
KAI1 241818Z 03015KT 11/M04 A3019 RMK A01 T01081037  RH  036%=      5-min Rain = 0
KAI1 241819Z 03011KT 11/M04 A3019 RMK A01 T01071038  RH  036%=      5-min Rain = 0
KAI1 241820Z 04013KT 11/M04 A3019 RMK A01 T01071038  RH  036%=      5-min Rain = 0
KAI1 241821Z 05012KT 11/M04 A3019 RMK A01 T01081041  RH  035%=      5-min Rain = 0
KAI1 241822Z 04012KT 11/M04 A3019 RMK A01 T01061043  RH  035%=      5-min Rain = 0
KAI1 241823Z 05011G16KT 11/M04 A3019 RMK A01 T01061038  RH  036%=      5-min Rain = 0
KAI1 241824Z 04015KT 11/M04 A3019 RMK A01 T01111037  RH  035%=      5-min Rain = 0
KAI1 241825Z 04013KT 11/M04 A3019 RMK A01 T01121042  RH  034%=      5-min Rain = 0
KAI1 241826Z 05010KT 11/M04 A3018 RMK A01 T01071043  RH  034%=      5-min Rain = 0
KAI1 241827Z 05011G16KT 10/M04 A3018 RMK A01 T01041043  RH  035%=      5-min Rain = 0
KAI1 241828Z 04014G19KT 11/M04 A3018 RMK A01 T01051041  RH  036%=      5-min Rain = 0
KAI1 241829Z 04013KT 11/M04 A3018 RMK A01 T01051041  RH  035%=      5-min Rain = 0
KAI1 241830Z 04009KT 11/M04 A3018 RMK A01 T01061041  RH  035%=      5-min Rain = 0
KAI1 241831Z 05011KT 11/M04 A3018 RMK A01 T01051040  RH  036%=      5-min Rain = 0
KAI1 241832Z 04017KT 11/M04 A3018 RMK A01 T01091040  RH  035%=      5-min Rain = 0
KAI1 241833Z 04015KT 11/M04 A3018 RMK A01 T01111042  RH  034%=      5-min Rain = 0
KAI1 241834Z 04014KT 11/M04 A3018 RMK A01 T01111042  RH  034%=      5-min Rain = 0
KAI1 241835Z 05012KT 11/M04 A3018 RMK A01 T01111041  RH  034%=      5-min Rain = 0
KAI1 241836Z 04010KT 11/M04 A3018 RMK A01 T01121042  RH  034%=      5-min Rain = 0
KAI1 241837Z 04009KT 11/M04 A3017 RMK A01 T01121040  RH  034%=      5-min Rain = 0
KAI1 241838Z 05012KT 11/M04 A3018 RMK A01 T01101044  RH  034%=      5-min Rain = 0
KAI1 241839Z 05011KT 11/M05 A3017 RMK A01 T01131047  RH  032%=      5-min Rain = 0
KAI1 241840Z 05010KT 11/M04 A3017 RMK A01 T01141043  RH  033%=      5-min Rain = 0
KAI1 241841Z 05013KT 12/M04 A3017 RMK A01 T01191038  RH  033%=      5-min Rain = 0
KAI1 241842Z 04014KT 12/M04 A3017 RMK A01 T01191041  RH  032%=      5-min Rain = 0
KAI1 241843Z 04012KT 12/M04 A3017 RMK A01 T01221040  RH  032%=      5-min Rain = 0
KAI1 241844Z 03009G16KT 12/M04 A3017 RMK A01 T01181043  RH  032%=      5-min Rain = 0
KAI1 241845Z 03017KT 12/M04 A3017 RMK A01 T01171042  RH  033%=      5-min Rain = 0
KAI1 241846Z 03015KT 12/M05 A3017 RMK A01 T01181046  RH  031%=      5-min Rain = 0
KAI1 241847Z 05013KT 12/M05 A3017 RMK A01 T01191046  RH  031%=      5-min Rain = 0
KAI1 241848Z 04010KT 12/M05 A3017 RMK A01 T01181048  RH  031%=      5-min Rain = 0
KAI1 241849Z 04012KT 11/M05 A3017 RMK A01 T01141049  RH  032%=      5-min Rain = 0
KAI1 241850Z 04011KT 12/M05 A3017 RMK A01 T01151049  RH  031%=      5-min Rain = 0
KAI1 241851Z 04014KT 12/M05 A3017 RMK A01 T01161047  RH  032%=      5-min Rain = 0
KAI1 241852Z 04015KT 12/M05 A3017 RMK A01 T01171045  RH  032%=      5-min Rain = 0
KAI1 241853Z 04012KT 12/M05 A3017 RMK A01 T01171048  RH  031%=      5-min Rain = 0
KAI1 241854Z 03014KT 12/M05 A3017 RMK A01 T01191045  RH  031%=      5-min Rain = 0
KAI1 241855Z 04011KT 12/M05 A3017 RMK A01 T01191047  RH  031%=      5-min Rain = 0
KAI1 241856Z 06014KT 12/M05 A3017 RMK A01 T01201051  RH  030%=      5-min Rain = 0
KAI1 241857Z 04014KT 12/M06 A3017 RMK A01 T01211055  RH  029%=      5-min Rain = 0
KAI1 241858Z 04013KT 12/M05 A3017 RMK A01 T01211049  RH  030%=      5-min Rain = 0
KAI1 241859Z 04012KT 12/M05 A3017 RMK A01 T01191048  RH  031%=      5-min Rain = 0
KAI1 241900Z 06017KT 12/M05 A3017 RMK A01 T01221050  RH  030%=      5-min Rain = 0
KAI1 241901Z 07017KT 12/M05 A3017 RMK A01 T01221053  RH  029%=      5-min Rain = 0
KAI1 241902Z 06014KT 12/M06 A3017 RMK A01 T01211058  RH  028%=      5-min Rain = 0
KAI1 241903Z 06014KT 12/M06 A3017 RMK A01 T01191058  RH  028%=      5-min Rain = 0
KAI1 241904Z 05014KT 12/M06 A3017 RMK A01 T01181058  RH  029%=      5-min Rain = 0
KAI1 241905Z 06013KT 12/M06 A3017 RMK A01 T01171060  RH  028%=      5-min Rain = 0
KAI1 241906Z 04015KT 12/M06 A3017 RMK A01 T01171058  RH  029%=      5-min Rain = 0
KAI1 241907Z 05014KT 12/M05 A3017 RMK A01 T01181052  RH  030%=      5-min Rain = 0
KAI1 241908Z 05015KT 12/M05 A3017 RMK A01 T01221054  RH  029%=      5-min Rain = 0
KAI1 241909Z 06014KT 12/M06 A3017 RMK A01 T01201055  RH  029%=      5-min Rain = 0
KAI1 241910Z 05014KT 12/M06 A3017 RMK A01 T01191055  RH  029%=      5-min Rain = 0
KAI1 241911Z 04011KT 12/M05 A3016 RMK A01 T01201053  RH  029%=      5-min Rain = 0
KAI1 241912Z 04012KT 12/M06 A3016 RMK A01 T01221055  RH  029%=      5-min Rain = 0
KAI1 241913Z 03013KT 12/M06 A3016 RMK A01 T01191058  RH  029%=      5-min Rain = 0
KAI1 241914Z 05013KT 12/M05 A3016 RMK A01 T01201053  RH  029%=      5-min Rain = 0
KAI1 241915Z 06012KT 12/M05 A3016 RMK A01 T01231052  RH  029%=      5-min Rain = 0
KAI1 241916Z 07013KT 12/M05 A3016 RMK A01 T01201054  RH  029%=      5-min Rain = 0
KAI1 241917Z 06012KT 12/M06 A3016 RMK A01 T01191055  RH  029%=      5-min Rain = 0
KAI1 241918Z 05014KT 12/M06 A3016 RMK A01 T01201056  RH  029%=      5-min Rain = 0
KAI1 241919Z 05015KT 12/M05 A3016 RMK A01 T01231053  RH  029%=      5-min Rain = 0
KAI1 241920Z 07011KT 12/M06 A3016 RMK A01 T01221056  RH  028%=      5-min Rain = 0
KAI1 241921Z 05008KT 12/M06 A3016 RMK A01 T01191056  RH  029%=      5-min Rain = 0
KAI1 241922Z 05014KT 12/M05 A3016 RMK A01 T01231050  RH  030%=      5-min Rain = 0
KAI1 241923Z 04013KT 13/M05 A3016 RMK A01 T01261052  RH  028%=      5-min Rain = 0
KAI1 241924Z 06012KT 12/M06 A3016 RMK A01 T01241056  RH  028%=      5-min Rain = 0
KAI1 241925Z 06010KT 12/M06 A3016 RMK A01 T01201060  RH  028%=      5-min Rain = 0
KAI1 241926Z 06012KT 12/M06 A3016 RMK A01 T01191058  RH  029%=      5-min Rain = 0
KAI1 241927Z 06014KT 12/M06 A3016 RMK A01 T01221062  RH  027%=      5-min Rain = 0
KAI1 241928Z 08012KT 12/M06 A3016 RMK A01 T01231064  RH  026%=      5-min Rain = 0
KAI1 241929Z 09009KT 12/M07 A3016 RMK A01 T01231066  RH  026%=      5-min Rain = 0
KAI1 241930Z 08011G17KT 12/M07 A3016 RMK A01 T01211065  RH  027%=      5-min Rain = 0
KAI1 241931Z 06011KT 13/M06 A3016 RMK A01 T01271057  RH  027%=      5-min Rain = 0
KAI1 241932Z 06012G17KT 13/M06 A3016 RMK A01 T01291059  RH  026%=      5-min Rain = 0
KAI1 241933Z 06014KT 13/M06 A3016 RMK A01 T01281060  RH  026%=      5-min Rain = 0
KAI1 241934Z 07013KT 13/M06 A3016 RMK A01 T01261057  RH  027%=      5-min Rain = 0
KAI1 241935Z 08010KT 13/M06 A3016 RMK A01 T01271057  RH  027%=      5-min Rain = 0
KAI1 241936Z 08010KT 13/M06 A3016 RMK A01 T01251058  RH  027%=      5-min Rain = 0
KAI1 241937Z 07009KT 12/M06 A3016 RMK A01 T01241059  RH  027%=      5-min Rain = 0
KAI1 241938Z 08008KT 12/M06 A3016 RMK A01 T01231062  RH  027%=      5-min Rain = 0
KAI1 241939Z 08008KT 12/M06 A3016 RMK A01 T01211061  RH  027%=      5-min Rain = 0
KAI1 241940Z 06007G13KT 12/M06 A3016 RMK A01 T01201058  RH  028%=      5-min Rain = 0
KAI1 241941Z 06012KT 13/M05 A3016 RMK A01 T01251052  RH  029%=      5-min Rain = 0
KAI1 241942Z 06013KT 13/M05 A3016 RMK A01 T01301053  RH  028%=      5-min Rain = 0
KAI1 241943Z 05011KT 13/M06 A3016 RMK A01 T01281057  RH  027%=      5-min Rain = 0
KAI1 241944Z 04008KT 13/M06 A3016 RMK A01 T01261062  RH  026%=      5-min Rain = 0
KAI1 241945Z 03007KT 12/M07 A3016 RMK A01 T01211066  RH  026%=      5-min Rain = 0
KAI1 241946Z 04014KT 12/M06 A3016 RMK A01 T01211060  RH  028%=      5-min Rain = 0
KAI1 241947Z 06011KT 13/M06 A3016 RMK A01 T01261057  RH  028%=      5-min Rain = 0
KAI1 241948Z 06009KT 13/M06 A3016 RMK A01 T01281059  RH  027%=      5-min Rain = 0
KAI1 241949Z 07010KT 13/M06 A3016 RMK A01 T01271059  RH  027%=      5-min Rain = 0
KAI1 241950Z 08008G13KT 13/M06 A3016 RMK A01 T01261061  RH  027%=      5-min Rain = 0
KAI1 241951Z 06011G16KT 12/M06 A3016 RMK A01 T01241061  RH  027%=      5-min Rain = 0
KAI1 241952Z 04013KT 13/M06 A3016 RMK A01 T01251059  RH  027%=      5-min Rain = 0
KAI1 241953Z 05010KT 12/M06 A3016 RMK A01 T01241061  RH  027%=      5-min Rain = 0
KAI1 241954Z 06009KT 12/M06 A3015 RMK A01 T01221059  RH  028%=      5-min Rain = 0
KAI1 241955Z 06011KT 12/M06 A3015 RMK A01 T01221058  RH  028%=      5-min Rain = 0
KAI1 241956Z 04010KT 12/M06 A3015 RMK A01 T01231059  RH  028%=      5-min Rain = 0
KAI1 241957Z 04013KT 12/M06 A3015 RMK A01 T01241057  RH  028%=      5-min Rain = 0
KAI1 241958Z 04010KT 13/M06 A3015 RMK A01 T01261059  RH  027%=      5-min Rain = 0
KAI1 241959Z 06011KT 13/M06 A3015 RMK A01 T01291057  RH  027%=      5-min Rain = 0
KAI1 242000Z 08012KT 13/M06 A3015 RMK A01 T01291060  RH  026%=      5-min Rain = 0
KAI1 242001Z 09007KT 13/M06 A3015 RMK A01 T01291060  RH  026%=      5-min Rain = 0
KAI1 242002Z 07007G13KT 13/M06 A3015 RMK A01 T01261059  RH  027%=      5-min Rain = 0
KAI1 242003Z 06015KT 13/M06 A3015 RMK A01 T01301057  RH  027%=      5-min Rain = 0
KAI1 242004Z 06011KT 13/M06 A3015 RMK A01 T01331060  RH  026%=      5-min Rain = 0
KAI1 242005Z 06010KT 13/M07 A3015 RMK A01 T01331068  RH  024%=      5-min Rain = 0
KAI1 242006Z 04007KT 13/M07 A3014 RMK A01 T01291067  RH  025%=      5-min Rain = 0
KAI1 242007Z 05012KT 13/M06 A3014 RMK A01 T01291064  RH  026%=      5-min Rain = 0
KAI1 242008Z 06011KT 13/M07 A3014 RMK A01 T01291066  RH  025%=      5-min Rain = 0
KAI1 242009Z 07011KT 13/M06 A3014 RMK A01 T01281063  RH  026%=      5-min Rain = 0
KAI1 242010Z 08011KT 13/M06 A3014 RMK A01 T01281061  RH  026%=      5-min Rain = 0
KAI1 242011Z 07010KT 13/M06 A3014 RMK A01 T01291061  RH  026%=      5-min Rain = 0
KAI1 242012Z 08006KT 13/M06 A3014 RMK A01 T01291064  RH  026%=      5-min Rain = 0
KAI1 242013Z 09009KT 13/M06 A3014 RMK A01 T01291062  RH  026%=      5-min Rain = 0
KAI1 242014Z 09013KT 13/M06 A3014 RMK A01 T01341061  RH  025%=      5-min Rain = 0
KAI1 242015Z 08011KT 14/M07 A3014 RMK A01 T01401065  RH  024%=      5-min Rain = 0
KAI1 242016Z 09011KT 14/M07 A3014 RMK A01 T01361071  RH  023%=      5-min Rain = 0
KAI1 242017Z 10014KT 14/M07 A3014 RMK A01 T01371067  RH  024%=      5-min Rain = 0
KAI1 242018Z 08012KT 14/M07 A3014 RMK A01 T01371071  RH  023%=      5-min Rain = 0
KAI1 242019Z 08012KT 14/M07 A3014 RMK A01 T01351073  RH  023%=      5-min Rain = 0
KAI1 242020Z 08012KT 13/M07 A3014 RMK A01 T01331072  RH  023%=      5-min Rain = 0
KAI1 242021Z 06015KT 13/M07 A3014 RMK A01 T01341069  RH  024%=      5-min Rain = 0
KAI1 242022Z 07012KT 13/M07 A3014 RMK A01 T01331070  RH  024%=      5-min Rain = 0
KAI1 242023Z 06010KT 13/M07 A3014 RMK A01 T01311074  RH  023%=      5-min Rain = 0
KAI1 242024Z 05009KT 13/M08 A3014 RMK A01 T01271077  RH  023%=      5-min Rain = 0
KAI1 242025Z 06009KT 13/M08 A3014 RMK A01 T01261076  RH  024%=      5-min Rain = 0
KAI1 242026Z 05012KT 13/M08 A3014 RMK A01 T01261077  RH  023%=      5-min Rain = 0
KAI1 242027Z 05010KT 13/M08 A3014 RMK A01 T01271078  RH  023%=      5-min Rain = 0
KAI1 242028Z 06010KT 13/M08 A3013 RMK A01 T01261076  RH  024%=      5-min Rain = 0
KAI1 242029Z 07009KT 13/M07 A3013 RMK A01 T01271072  RH  024%=      5-min Rain = 0
KAI1 242030Z 10011KT 13/M07 A3013 RMK A01 T01291072  RH  024%=      5-min Rain = 0
KAI1 242031Z 09010KT 13/M07 A3013 RMK A01 T01301071  RH  024%=      5-min Rain = 0
KAI1 242032Z 07012KT 13/M07 A3014 RMK A01 T01321068  RH  024%=      5-min Rain = 0
KAI1 242033Z 06011KT 13/M07 A3013 RMK A01 T01331071  RH  024%=      5-min Rain = 0
KAI1 242034Z 04008KT 13/M07 A3013 RMK A01 T01301073  RH  024%=      5-min Rain = 0
KAI1 242035Z 04010KT 13/M07 A3013 RMK A01 T01291071  RH  024%=      5-min Rain = 0
KAI1 242036Z 05009G15KT 13/M07 A3013 RMK A01 T01301073  RH  024%=      5-min Rain = 0
KAI1 242037Z 07014G19KT 13/M07 A3013 RMK A01 T01301069  RH  024%=      5-min Rain = 0
KAI1 242038Z 07015KT 13/M07 A3014 RMK A01 T01321066  RH  025%=      5-min Rain = 0
KAI1 242039Z 07011KT 13/M07 A3014 RMK A01 T01331067  RH  024%=      5-min Rain = 0
KAI1 242040Z 05012KT 13/M07 A3014 RMK A01 T01311070  RH  024%=      5-min Rain = 0
KAI1 242041Z 06013KT 13/M07 A3014 RMK A01 T01311070  RH  024%=      5-min Rain = 0
KAI1 242042Z 07014KT 13/M07 A3014 RMK A01 T01321071  RH  024%=      5-min Rain = 0
KAI1 242043Z 07011KT 13/M07 A3014 RMK A01 T01341068  RH  024%=      5-min Rain = 0
KAI1 242044Z 06010KT 14/M07 A3014 RMK A01 T01351074  RH  023%=      5-min Rain = 0
KAI1 242045Z 06008KT 13/M08 A3013 RMK A01 T01301075  RH  023%=      5-min Rain = 0
KAI1 242046Z 07007KT 13/M07 A3013 RMK A01 T01301074  RH  023%=      5-min Rain = 0
KAI1 242047Z 09013KT 13/M07 A3013 RMK A01 T01301073  RH  024%=      5-min Rain = 0
KAI1 242048Z 10012KT 13/M07 A3014 RMK A01 T01321070  RH  024%=      5-min Rain = 0
KAI1 242049Z 10010KT 13/M07 A3013 RMK A01 T01331071  RH  024%=      5-min Rain = 0
KAI1 242050Z 09011KT 13/M07 A3013 RMK A01 T01331073  RH  023%=      5-min Rain = 0
KAI1 242051Z 10009KT 13/M08 A3014 RMK A01 T01311075  RH  023%=      5-min Rain = 0
KAI1 242052Z 09007KT 13/M08 A3014 RMK A01 T01301075  RH  023%=      5-min Rain = 0
KAI1 242053Z 08005KT 13/M08 A3014 RMK A01 T01291075  RH  023%=      5-min Rain = 0
KAI1 242054Z 09012KT 13/M07 A3014 RMK A01 T01291071  RH  024%=      5-min Rain = 0
KAI1 242055Z 10013KT 13/M07 A3014 RMK A01 T01321069  RH  024%=      5-min Rain = 0
KAI1 242056Z 11012KT 14/M07 A3014 RMK A01 T01371065  RH  024%=      5-min Rain = 0
KAI1 242057Z 11011KT 14/M07 A3014 RMK A01 T01391070  RH  023%=      5-min Rain = 0
KAI1 242058Z 10011KT 14/M07 A3013 RMK A01 T01361069  RH  023%=      5-min Rain = 0
KAI1 242059Z 11010KT 14/M07 A3013 RMK A01 T01361071  RH  023%=      5-min Rain = 0
KAI1 242100Z 10008KT 13/M07 A3013 RMK A01 T01331074  RH  023%=      5-min Rain = 0
KAI1 242101Z 11010KT 13/M07 A3013 RMK A01 T01321072  RH  024%=      5-min Rain = 0
KAI1 242102Z 12007KT 13/M07 A3013 RMK A01 T01311071  RH  024%=      5-min Rain = 0
KAI1 242103Z 09012KT 13/M07 A3013 RMK A01 T01321067  RH  024%=      5-min Rain = 0
KAI1 242104Z 09011KT 14/M07 A3013 RMK A01 T01361066  RH  024%=      5-min Rain = 0
KAI1 242105Z 09009KT 14/M07 A3013 RMK A01 T01361067  RH  024%=      5-min Rain = 0
KAI1 242106Z 09009KT 13/M07 A3013 RMK A01 T01341067  RH  024%=      5-min Rain = 0
KAI1 242107Z 06011KT 13/M07 A3013 RMK A01 T01331066  RH  024%=      5-min Rain = 0
KAI1 242108Z 06013KT 13/M07 A3013 RMK A01 T01341068  RH  024%=      5-min Rain = 0
KAI1 242109Z 05010KT 14/M07 A3013 RMK A01 T01361066  RH  024%=      5-min Rain = 0
KAI1 242110Z 08013KT 14/M07 A3013 RMK A01 T01371066  RH  024%=      5-min Rain = 0
KAI1 242111Z 08009KT 14/M07 A3013 RMK A01 T01351068  RH  024%=      5-min Rain = 0
KAI1 242112Z 05008KT 13/M07 A3013 RMK A01 T01331068  RH  024%=      5-min Rain = 0
KAI1 242113Z 06010KT 13/M07 A3013 RMK A01 T01331067  RH  024%=      5-min Rain = 0
KAI1 242114Z 06013KT 13/M07 A3013 RMK A01 T01331069  RH  024%=      5-min Rain = 0
KAI1 242115Z 07011KT 13/M07 A3013 RMK A01 T01331070  RH  024%=      5-min Rain = 0
KAI1 242116Z 09013KT 13/M07 A3013 RMK A01 T01341065  RH  024%=      5-min Rain = 0
KAI1 242117Z 10010KT 14/M07 A3013 RMK A01 T01351066  RH  024%=      5-min Rain = 0
KAI1 242118Z 09007KT 13/M07 A3013 RMK A01 T01341067  RH  024%=      5-min Rain = 0
KAI1 242119Z 07011KT 13/M07 A3013 RMK A01 T01341068  RH  024%=      5-min Rain = 0
KAI1 242120Z 06010KT 13/M07 A3013 RMK A01 T01331070  RH  024%=      5-min Rain = 0
KAI1 242121Z 07008KT 13/M07 A3013 RMK A01 T01311070  RH  024%=      5-min Rain = 0
KAI1 242122Z 08008G15KT 13/M07 A3013 RMK A01 T01321068  RH  024%=      5-min Rain = 0
KAI1 242123Z 09012G17KT 14/M07 A3013 RMK A01 T01351065  RH  024%=      5-min Rain = 0
KAI1 242124Z 09012KT 14/M07 A3013 RMK A01 T01351066  RH  024%=      5-min Rain = 0
KAI1 242125Z 09009KT 13/M07 A3013 RMK A01 T01341067  RH  024%=      5-min Rain = 0
KAI1 242126Z 09009KT 13/M07 A3013 RMK A01 T01341068  RH  024%=      5-min Rain = 0
KAI1 242127Z 06009KT 13/M07 A3013 RMK A01 T01341068  RH  024%=      5-min Rain = 0
KAI1 242128Z 05009KT 14/M07 A3013 RMK A01 T01351066  RH  024%=      5-min Rain = 0
KAI1 242129Z 05008KT 14/M07 A3012 RMK A01 T01371066  RH  024%=      5-min Rain = 0
KAI1 242130Z 06008KT 14/M07 A3012 RMK A01 T01371069  RH  023%=      5-min Rain = 0
KAI1 242131Z 07009KT 14/M07 A3012 RMK A01 T01351068  RH  024%=      5-min Rain = 0
KAI1 242132Z 07016KT 14/M07 A3012 RMK A01 T01371066  RH  024%=      5-min Rain = 0
KAI1 242133Z 07012KT 14/M07 A3012 RMK A01 T01381071  RH  023%=      5-min Rain = 0
KAI1 242134Z 06010KT 14/M07 A3012 RMK A01 T01361072  RH  023%=      5-min Rain = 0
KAI1 242135Z 07012KT 14/M07 A3012 RMK A01 T01351072  RH  023%=      5-min Rain = 0
KAI1 242136Z 06008KT 13/M07 A3012 RMK A01 T01341073  RH  023%=      5-min Rain = 0
KAI1 242137Z 06006KT 13/M07 A3012 RMK A01 T01341072  RH  023%=      5-min Rain = 0
KAI1 242138Z 08009KT 13/M07 A3012 RMK A01 T01321074  RH  023%=      5-min Rain = 0
KAI1 242139Z 06013KT 13/M07 A3012 RMK A01 T01331072  RH  023%=      5-min Rain = 0
KAI1 242140Z 06013KT 13/M07 A3012 RMK A01 T01341071  RH  023%=      5-min Rain = 0
KAI1 242141Z 06010KT 13/M07 A3012 RMK A01 T01341073  RH  023%=      5-min Rain = 0
KAI1 242142Z 06010G15KT 13/M07 A3012 RMK A01 T01341072  RH  023%=      5-min Rain = 0
KAI1 242143Z 08012KT 14/M07 A3012 RMK A01 T01351072  RH  023%=      5-min Rain = 0
KAI1 242144Z 09007KT 14/M07 A3012 RMK A01 T01391069  RH  023%=      5-min Rain = 0
KAI1 242145Z 09007KT 14/M07 A3012 RMK A01 T01401072  RH  022%=      5-min Rain = 0
KAI1 242146Z 09013KT 14/M07 A3012 RMK A01 T01401072  RH  022%=      5-min Rain = 0
KAI1 242147Z 09012KT 14/M07 A3012 RMK A01 T01401073  RH  022%=      5-min Rain = 0
KAI1 242148Z 07011KT 14/M07 A3012 RMK A01 T01411074  RH  022%=      5-min Rain = 0
KAI1 242149Z 09012KT 14/M07 A3012 RMK A01 T01411074  RH  022%=      5-min Rain = 0
KAI1 242150Z 08013KT 14/M07 A3013 RMK A01 T01421074  RH  022%=      5-min Rain = 0
KAI1 242151Z 09010KT 14/M08 A3012 RMK A01 T01391077  RH  022%=      5-min Rain = 0
KAI1 242152Z 09008KT 14/M08 A3012 RMK A01 T01361079  RH  022%=      5-min Rain = 0
KAI1 242153Z 11011KT 14/M08 A3012 RMK A01 T01351076  RH  022%=      5-min Rain = 0
KAI1 242154Z 12011KT 14/M08 A3012 RMK A01 T01361077  RH  022%=      5-min Rain = 0
KAI1 242155Z 12012KT 14/M08 A3012 RMK A01 T01371075  RH  022%=      5-min Rain = 0
KAI1 242156Z 10012KT 14/M07 A3012 RMK A01 T01391074  RH  022%=      5-min Rain = 0
KAI1 242157Z 09010KT 14/M08 A3012 RMK A01 T01381076  RH  022%=      5-min Rain = 0
KAI1 242158Z 08010KT 14/M08 A3012 RMK A01 T01371075  RH  022%=      5-min Rain = 0
KAI1 242159Z 09011KT 14/M07 A3012 RMK A01 T01381073  RH  022%=      5-min Rain = 0
KAI1 242200Z 09009KT 14/M07 A3012 RMK A01 T01391074  RH  022%=      5-min Rain = 0
KAI1 242201Z 08009KT 14/M07 A3012 RMK A01 T01381074  RH  022%=      5-min Rain = 0
KAI1 242202Z 09008KT 14/M08 A3012 RMK A01 T01371076  RH  022%=      5-min Rain = 0
KAI1 242203Z 09007KT 14/M08 A3012 RMK A01 T01351078  RH  022%=      5-min Rain = 0
KAI1 242204Z 09010KT 13/M08 A3012 RMK A01 T01341076  RH  023%=      5-min Rain = 0
KAI1 242205Z 08010KT 13/M08 A3012 RMK A01 T01341076  RH  022%=      5-min Rain = 0
KAI1 242206Z 10010KT 14/M07 A3012 RMK A01 T01351072  RH  023%=      5-min Rain = 0
KAI1 242207Z 11013KT 14/M07 A3012 RMK A01 T01411070  RH  023%=      5-min Rain = 0
KAI1 242208Z 10010KT 14/M08 A3012 RMK A01 T01401075  RH  022%=      5-min Rain = 0
KAI1 242209Z 09012KT 14/M08 A3012 RMK A01 T01381076  RH  022%=      5-min Rain = 0
KAI1 242210Z 08010KT 14/M08 A3012 RMK A01 T01371077  RH  022%=      5-min Rain = 0
KAI1 242211Z 10011KT 14/M08 A3012 RMK A01 T01361076  RH  022%=      5-min Rain = 0
KAI1 242212Z 10012KT 14/M08 A3012 RMK A01 T01371075  RH  022%=      5-min Rain = 0
KAI1 242213Z 10008KT 14/M08 A3012 RMK A01 T01361079  RH  022%=      5-min Rain = 0
KAI1 242214Z 08010KT 14/M08 A3012 RMK A01 T01351076  RH  022%=      5-min Rain = 0
KAI1 242215Z 08008KT 14/M08 A3012 RMK A01 T01371075  RH  022%=      5-min Rain = 0
KAI1 242216Z 09011G18KT 14/M07 A3012 RMK A01 T01371073  RH  023%=      5-min Rain = 0
KAI1 242217Z 08012KT 14/M07 A3012 RMK A01 T01391071  RH  023%=      5-min Rain = 0
KAI1 242218Z 08012KT 14/M08 A3012 RMK A01 T01371075  RH  022%=      5-min Rain = 0
KAI1 242219Z 08009KT 14/M08 A3012 RMK A01 T01351076  RH  022%=      5-min Rain = 0
KAI1 242220Z 08008KT 14/M08 A3012 RMK A01 T01351075  RH  022%=      5-min Rain = 0
KAI1 242221Z 10010KT 14/M07 A3012 RMK A01 T01351074  RH  023%=      5-min Rain = 0
KAI1 242222Z 10012KT 14/M07 A3012 RMK A01 T01381073  RH  023%=      5-min Rain = 0
KAI1 242223Z 08009KT 14/M07 A3012 RMK A01 T01381074  RH  022%=      5-min Rain = 0
KAI1 242224Z 10012KT 14/M08 A3012 RMK A01 T01371075  RH  022%=      5-min Rain = 0
KAI1 242225Z 09012KT 14/M08 A3012 RMK A01 T01371076  RH  022%=      5-min Rain = 0
KAI1 242226Z 11012KT 14/M08 A3012 RMK A01 T01391075  RH  022%=      5-min Rain = 0
KAI1 242227Z 09013KT 14/M08 A3012 RMK A01 T01411076  RH  022%=      5-min Rain = 0
KAI1 242228Z 09009KT 14/M08 A3012 RMK A01 T01391078  RH  021%=      5-min Rain = 0
KAI1 242229Z 09009KT 14/M08 A3012 RMK A01 T01371079  RH  022%=      5-min Rain = 0
KAI1 242230Z 10008KT 14/M08 A3012 RMK A01 T01361080  RH  021%=      5-min Rain = 0
KAI1 242231Z 09009KT 14/M08 A3012 RMK A01 T01351079  RH  022%=      5-min Rain = 0
KAI1 242232Z 09009KT 14/M08 A3011 RMK A01 T01361077  RH  022%=      5-min Rain = 0
KAI1 242233Z 09011KT 14/M08 A3011 RMK A01 T01381077  RH  022%=      5-min Rain = 0
KAI1 242234Z 10009KT 14/M08 A3012 RMK A01 T01381079  RH  021%=      5-min Rain = 0
KAI1 242235Z 10012KT 14/M08 A3012 RMK A01 T01381078  RH  022%=      5-min Rain = 0
KAI1 242236Z 10011KT 14/M08 A3012 RMK A01 T01371077  RH  022%=      5-min Rain = 0
KAI1 242237Z 09010KT 14/M08 A3012 RMK A01 T01381077  RH  022%=      5-min Rain = 0
KAI1 242238Z 09010KT 14/M08 A3012 RMK A01 T01371079  RH  022%=      5-min Rain = 0
KAI1 242239Z 09012KT 14/M08 A3012 RMK A01 T01351079  RH  022%=      5-min Rain = 0
KAI1 242240Z 08013KT 14/M08 A3012 RMK A01 T01361079  RH  022%=      5-min Rain = 0
KAI1 242241Z 09012KT 14/M08 A3012 RMK A01 T01371077  RH  022%=      5-min Rain = 0
KAI1 242242Z 10011KT 14/M08 A3012 RMK A01 T01361079  RH  022%=      5-min Rain = 0
KAI1 242243Z 09009KT 14/M08 A3012 RMK A01 T01351079  RH  022%=      5-min Rain = 0
KAI1 242244Z 10010KT 14/M08 A3011 RMK A01 T01351078  RH  022%=      5-min Rain = 0
KAI1 242245Z 10010KT 14/M08 A3011 RMK A01 T01351078  RH  022%=      5-min Rain = 0
KAI1 242246Z 11008KT 13/M08 A3011 RMK A01 T01341080  RH  022%=      5-min Rain = 0
KAI1 242247Z 10008KT 13/M08 A3011 RMK A01 T01341079  RH  022%=      5-min Rain = 0
KAI1 242248Z 09010KT 14/M08 A3011 RMK A01 T01351078  RH  022%=      5-min Rain = 0
KAI1 242249Z 10008KT 14/M08 A3011 RMK A01 T01351078  RH  022%=      5-min Rain = 0
KAI1 242250Z 10010KT 14/M08 A3011 RMK A01 T01351076  RH  022%=      5-min Rain = 0
KAI1 242251Z 10011KT 14/M08 A3011 RMK A01 T01361077  RH  022%=      5-min Rain = 0
KAI1 242252Z 09009KT 14/M08 A3011 RMK A01 T01351077  RH  022%=      5-min Rain = 0
KAI1 242253Z 10010KT 14/M08 A3011 RMK A01 T01351077  RH  022%=      5-min Rain = 0
KAI1 242254Z 10008KT 13/M08 A3011 RMK A01 T01341078  RH  022%=      5-min Rain = 0
KAI1 242255Z 09009KT 13/M08 A3011 RMK A01 T01341078  RH  022%=      5-min Rain = 0
KAI1 242256Z 07010KT 13/M08 A3011 RMK A01 T01341076  RH  022%=      5-min Rain = 0
KAI1 242257Z 08010KT 14/M08 A3011 RMK A01 T01351078  RH  022%=      5-min Rain = 0
KAI1 242258Z 08011KT 13/M08 A3011 RMK A01 T01341077  RH  022%=      5-min Rain = 0
KAI1 242259Z 08012KT 14/M07 A3011 RMK A01 T01361074  RH  022%=      5-min Rain = 0
KAI1 242300Z 08011KT 14/M08 A3011 RMK A01 T01371076  RH  022%=      5-min Rain = 0
KAI1 242301Z 08011KT 14/M08 A3011 RMK A01 T01361075  RH  022%=      5-min Rain = 0
KAI1 242302Z 07010KT 14/M08 A3011 RMK A01 T01361076  RH  022%=      5-min Rain = 0
KAI1 242303Z 08014KT 14/M08 A3011 RMK A01 T01351075  RH  022%=      5-min Rain = 0
KAI1 242304Z 09012KT 14/M08 A3011 RMK A01 T01351075  RH  022%=      5-min Rain = 0
KAI1 242305Z 09010KT 14/M07 A3011 RMK A01 T01351074  RH  023%=      5-min Rain = 0
KAI1 242306Z 08013KT 14/M07 A3012 RMK A01 T01361073  RH  023%=      5-min Rain = 0
KAI1 242307Z 08012KT 14/M08 A3012 RMK A01 T01371075  RH  022%=      5-min Rain = 0
KAI1 242308Z 07012KT 14/M08 A3012 RMK A01 T01351077  RH  022%=      5-min Rain = 0
KAI1 242309Z 07011KT 13/M08 A3012 RMK A01 T01331076  RH  023%=      5-min Rain = 0
KAI1 242310Z 08013KT 13/M08 A3012 RMK A01 T01331077  RH  022%=      5-min Rain = 0
KAI1 242311Z 07011KT 13/M08 A3012 RMK A01 T01321078  RH  022%=      5-min Rain = 0
KAI1 242312Z 06011KT 13/M08 A3012 RMK A01 T01311079  RH  022%=      5-min Rain = 0
KAI1 242313Z 07013KT 13/M08 A3012 RMK A01 T01301079  RH  023%=      5-min Rain = 0
KAI1 242314Z 07010KT 13/M08 A3012 RMK A01 T01301078  RH  023%=      5-min Rain = 0
KAI1 242315Z 08010KT 13/M08 A3012 RMK A01 T01311077  RH  023%=      5-min Rain = 0
KAI1 242316Z 09011KT 13/M08 A3012 RMK A01 T01331076  RH  023%=      5-min Rain = 0
KAI1 242317Z 07011KT 13/M08 A3012 RMK A01 T01341077  RH  022%=      5-min Rain = 0
KAI1 242318Z 06011KT 13/M08 A3012 RMK A01 T01321079  RH  022%=      5-min Rain = 0
KAI1 242319Z 08011KT 13/M08 A3012 RMK A01 T01311080  RH  022%=      5-min Rain = 0
KAI1 242320Z 08013KT 13/M08 A3012 RMK A01 T01301079  RH  022%=      5-min Rain = 0
KAI1 242321Z 09013KT 13/M08 A3012 RMK A01 T01311078  RH  022%=      5-min Rain = 0
KAI1 242322Z 10012KT 13/M08 A3012 RMK A01 T01321078  RH  022%=      5-min Rain = 0
KAI1 242323Z 10010KT 13/M08 A3012 RMK A01 T01321079  RH  022%=      5-min Rain = 0
KAI1 242324Z 10009KT 13/M08 A3012 RMK A01 T01321078  RH  022%=      5-min Rain = 0
KAI1 242325Z 10007KT 13/M08 A3012 RMK A01 T01311080  RH  022%=      5-min Rain = 0
KAI1 242326Z 08009KT 13/M08 A3012 RMK A01 T01301079  RH  022%=      5-min Rain = 0
KAI1 242327Z 09010KT 13/M08 A3012 RMK A01 T01301079  RH  023%=      5-min Rain = 0
KAI1 242328Z 11009KT 13/M08 A3012 RMK A01 T01301078  RH  023%=      5-min Rain = 0
KAI1 242329Z 10008KT 13/M08 A3012 RMK A01 T01301078  RH  023%=      5-min Rain = 0
KAI1 242330Z 10007KT 13/M08 A3013 RMK A01 T01301078  RH  023%=      5-min Rain = 0
KAI1 242331Z 11008KT 13/M08 A3013 RMK A01 T01301077  RH  023%=      5-min Rain = 0
KAI1 242332Z 09009KT 13/M08 A3013 RMK A01 T01311076  RH  023%=      5-min Rain = 0
KAI1 242333Z 08009KT 13/M08 A3013 RMK A01 T01311075  RH  023%=      5-min Rain = 0
KAI1 242334Z 09012KT 13/M08 A3013 RMK A01 T01311076  RH  023%=      5-min Rain = 0
KAI1 242335Z 08012KT 13/M08 A3013 RMK A01 T01301077  RH  023%=      5-min Rain = 0
KAI1 242336Z 08010KT 13/M08 A3013 RMK A01 T01291077  RH  023%=      5-min Rain = 0
KAI1 242337Z 09011KT 13/M08 A3013 RMK A01 T01291075  RH  023%=      5-min Rain = 0
KAI1 242338Z 10012KT 13/M08 A3013 RMK A01 T01301075  RH  023%=      5-min Rain = 0
KAI1 242339Z 09010KT 13/M08 A3013 RMK A01 T01291076  RH  023%=      5-min Rain = 0
KAI1 242340Z 09009KT 13/M08 A3013 RMK A01 T01291076  RH  023%=      5-min Rain = 0
KAI1 242341Z 09008KT 13/M08 A3013 RMK A01 T01291077  RH  023%=      5-min Rain = 0
KAI1 242342Z 09009KT 13/M08 A3013 RMK A01 T01271077  RH  023%=      5-min Rain = 0
KAI1 242343Z 08009KT 13/M08 A3013 RMK A01 T01281076  RH  023%=      5-min Rain = 0
KAI1 242344Z 08011KT 13/M08 A3013 RMK A01 T01271076  RH  023%=      5-min Rain = 0
KAI1 242345Z 07010KT 13/M08 A3013 RMK A01 T01271076  RH  023%=      5-min Rain = 0
KAI1 242346Z 08009KT 13/M08 A3013 RMK A01 T01271075  RH  024%=      5-min Rain = 0
KAI1 242347Z 07012KT 13/M08 A3013 RMK A01 T01271076  RH  024%=      5-min Rain = 0
KAI1 242348Z 07012G17KT 13/M08 A3013 RMK A01 T01261077  RH  024%=      5-min Rain = 0
KAI1 242349Z 09011KT 13/M08 A3013 RMK A01 T01251077  RH  024%=      5-min Rain = 0
KAI1 242350Z 09009KT 13/M08 A3013 RMK A01 T01251076  RH  024%=      5-min Rain = 0
KAI1 242351Z 09012KT 13/M08 A3013 RMK A01 T01261076  RH  024%=      5-min Rain = 0
KAI1 242352Z 09012KT 13/M08 A3013 RMK A01 T01251076  RH  024%=      5-min Rain = 0
KAI1 242353Z 08012KT 12/M08 A3013 RMK A01 T01241076  RH  024%=      5-min Rain = 0
KAI1 242354Z 08011KT 12/M08 A3013 RMK A01 T01241076  RH  024%=      5-min Rain = 0
KAI1 242355Z 08010KT 12/M08 A3013 RMK A01 T01231077  RH  024%=      5-min Rain = 0
KAI1 242356Z 07011KT 12/M08 A3013 RMK A01 T01231077  RH  024%=      5-min Rain = 0
KAI1 242357Z 07012KT 12/M08 A3013 RMK A01 T01231078  RH  024%=      5-min Rain = 0
KAI1 242358Z 08012KT 12/M08 A3013 RMK A01 T01221078  RH  024%=      5-min Rain = 0
KAI1 242359Z 08012KT 12/M08 A3013 RMK A01 T01221078  RH  024%=      5-min Rain = 0
KAI1 250000Z 07012KT 12/M08 A3013 RMK A01 T01221078  RH  024%=      5-min Rain = 0
KAI1 250001Z 08012KT 12/M08 A3013 RMK A01 T01211077  RH  024%=      5-min Rain = 0
KAI1 250002Z 08011KT 12/M08 A3013 RMK A01 T01211077  RH  024%=      5-min Rain = 0
KAI1 250003Z 08010KT 12/M08 A3013 RMK A01 T01211078  RH  024%=      5-min Rain = 0
KAI1 250004Z 08011KT 12/M08 A3013 RMK A01 T01201078  RH  024%=      5-min Rain = 0
KAI1 250005Z 08010KT 12/M08 A3013 RMK A01 T01201077  RH  024%=      5-min Rain = 0
KAI1 250006Z 09009KT 12/M08 A3013 RMK A01 T01201077  RH  025%=      5-min Rain = 0
KAI1 250007Z 09009KT 12/M08 A3013 RMK A01 T01191077  RH  025%=      5-min Rain = 0
KAI1 250008Z 08012KT 12/M08 A3013 RMK A01 T01181078  RH  025%=      5-min Rain = 0
KAI1 250009Z 08011KT 12/M08 A3013 RMK A01 T01171079  RH  024%=      5-min Rain = 0
KAI1 250010Z 08010KT 12/M08 A3013 RMK A01 T01171080  RH  024%=      5-min Rain = 0
KAI1 250011Z 08009KT 12/M08 A3013 RMK A01 T01161080  RH  025%=      5-min Rain = 0
KAI1 250012Z 08011KT 12/M08 A3013 RMK A01 T01161080  RH  025%=      5-min Rain = 0
KAI1 250013Z 08010KT 12/M08 A3013 RMK A01 T01151080  RH  025%=      5-min Rain = 0
KAI1 250014Z 07010KT 12/M08 A3013 RMK A01 T01151081  RH  025%=      5-min Rain = 0
KAI1 250015Z 08010KT 11/M08 A3013 RMK A01 T01141080  RH  025%=      5-min Rain = 0
KAI1 250016Z 08009KT 11/M08 A3013 RMK A01 T01141079  RH  025%=      5-min Rain = 0
KAI1 250017Z 08009KT 11/M08 A3013 RMK A01 T01141079  RH  025%=      5-min Rain = 0
KAI1 250018Z 08009KT 11/M08 A3013 RMK A01 T01121079  RH  025%=      5-min Rain = 0
KAI1 250019Z 08008KT 11/M08 A3013 RMK A01 T01111079  RH  026%=      5-min Rain = 0
KAI1 250020Z 08008KT 11/M08 A3013 RMK A01 T01101079  RH  026%=      5-min Rain = 0
KAI1 250021Z 09009KT 11/M08 A3013 RMK A01 T01091078  RH  026%=      5-min Rain = 0
KAI1 250022Z 09008KT 11/M08 A3014 RMK A01 T01091077  RH  026%=      5-min Rain = 0
KAI1 250023Z 09009KT 11/M08 A3014 RMK A01 T01091077  RH  026%=      5-min Rain = 0
KAI1 250024Z 09010KT 11/M08 A3014 RMK A01 T01071077  RH  027%=      5-min Rain = 0
KAI1 250025Z 08010KT 11/M08 A3014 RMK A01 T01081076  RH  027%=      5-min Rain = 0
KAI1 250026Z 09010KT 11/M08 A3014 RMK A01 T01071077  RH  027%=      5-min Rain = 0
KAI1 250027Z 09009KT 11/M08 A3014 RMK A01 T01061077  RH  027%=      5-min Rain = 0
KAI1 250028Z 09009KT 11/M08 A3014 RMK A01 T01051076  RH  027%=      5-min Rain = 0
KAI1 250029Z 09009KT 10/M08 A3014 RMK A01 T01041076  RH  027%=      5-min Rain = 0
KAI1 250030Z 08009KT 10/M08 A3014 RMK A01 T01031076  RH  028%=      5-min Rain = 0
KAI1 250031Z 08008KT 10/M08 A3014 RMK A01 T01021076  RH  028%=      5-min Rain = 0
KAI1 250032Z 08009KT 10/M08 A3014 RMK A01 T01011077  RH  028%=      5-min Rain = 0
KAI1 250033Z 08009KT 10/M08 A3014 RMK A01 T01001077  RH  028%=      5-min Rain = 0
KAI1 250034Z 08008KT 10/M08 A3014 RMK A01 T00991077  RH  028%=      5-min Rain = 0
KAI1 250035Z 08009KT 10/M08 A3015 RMK A01 T00981078  RH  028%=      5-min Rain = 0
KAI1 250036Z 08008KT 10/M08 A3015 RMK A01 T00971077  RH  028%=      5-min Rain = 0
KAI1 250037Z 08008KT 10/M08 A3015 RMK A01 T00961078  RH  029%=      5-min Rain = 0
KAI1 250038Z 08008KT 10/M08 A3015 RMK A01 T00951078  RH  029%=      5-min Rain = 0
KAI1 250039Z 08008KT 09/M08 A3015 RMK A01 T00941078  RH  029%=      5-min Rain = 0
KAI1 250040Z 08007KT 09/M08 A3015 RMK A01 T00931079  RH  029%=      5-min Rain = 0
KAI1 250041Z 08008KT 09/M08 A3015 RMK A01 T00911079  RH  029%=      5-min Rain = 0
KAI1 250042Z 08008KT 09/M08 A3015 RMK A01 T00901079  RH  029%=      5-min Rain = 0
KAI1 250043Z 08008KT 09/M08 A3015 RMK A01 T00891079  RH  030%=      5-min Rain = 0
KAI1 250044Z 08008KT 09/M08 A3015 RMK A01 T00881079  RH  030%=      5-min Rain = 0
KAI1 250045Z 08008KT 09/M08 A3015 RMK A01 T00871080  RH  030%=      5-min Rain = 0
KAI1 250046Z 08008KT 09/M08 A3015 RMK A01 T00861080  RH  030%=      5-min Rain = 0
KAI1 250047Z 08008KT 08/M08 A3015 RMK A01 T00841080  RH  030%=      5-min Rain = 0
KAI1 250048Z 08008KT 08/M08 A3015 RMK A01 T00831082  RH  030%=      5-min Rain = 0
KAI1 250049Z 08008KT 08/M08 A3015 RMK A01 T00811082  RH  031%=      5-min Rain = 0
KAI1 250050Z 08008KT 08/M08 A3015 RMK A01 T00801082  RH  031%=      5-min Rain = 0
KAI1 250051Z 08008KT 08/M08 A3015 RMK A01 T00791082  RH  031%=      5-min Rain = 0
KAI1 250052Z 08008KT 08/M08 A3015 RMK A01 T00781082  RH  031%=      5-min Rain = 0
KAI1 250053Z 08008KT 08/M08 A3015 RMK A01 T00771082  RH  031%=      5-min Rain = 0
KAI1 250054Z 08009KT 08/M08 A3016 RMK A01 T00761082  RH  032%=      5-min Rain = 0
KAI1 250055Z 08009KT 08/M08 A3016 RMK A01 T00751083  RH  032%=      5-min Rain = 0
KAI1 250056Z 08009KT 07/M08 A3015 RMK A01 T00741083  RH  032%=      5-min Rain = 0
KAI1 250057Z 08009KT 07/M08 A3015 RMK A01 T00741083  RH  032%=      5-min Rain = 0
KAI1 250058Z 08009KT 07/M08 A3016 RMK A01 T00741083  RH  032%=      5-min Rain = 0
KAI1 250059Z 08009KT 07/M08 A3016 RMK A01 T00731083  RH  032%=      5-min Rain = 0
KAI1 250100Z 08009KT 07/M08 A3016 RMK A01 T00731083  RH  032%=      5-min Rain = 0
KAI1 250101Z 08008KT 07/M08 A3016 RMK A01 T00721084  RH  032%=      5-min Rain = 0
KAI1 250102Z 08009KT 07/M08 A3016 RMK A01 T00711084  RH  032%=      5-min Rain = 0
KAI1 250103Z 08008KT 07/M08 A3016 RMK A01 T00701084  RH  032%=      5-min Rain = 0
KAI1 250104Z 08008KT 07/M08 A3016 RMK A01 T00701084  RH  033%=      5-min Rain = 0
KAI1 250105Z 08008KT 07/M08 A3016 RMK A01 T00691084  RH  033%=      5-min Rain = 0
KAI1 250106Z 08008KT 07/M08 A3016 RMK A01 T00671084  RH  033%=      5-min Rain = 0
KAI1 250107Z 08008KT 07/M08 A3016 RMK A01 T00671084  RH  033%=      5-min Rain = 0
KAI1 250108Z 08008KT 07/M09 A3016 RMK A01 T00651085  RH  033%=      5-min Rain = 0
KAI1 250109Z 08008KT 06/M09 A3016 RMK A01 T00641086  RH  033%=      5-min Rain = 0
KAI1 250110Z 08008KT 06/M09 A3016 RMK A01 T00621086  RH  034%=      5-min Rain = 0
KAI1 250111Z 08008KT 06/M09 A3016 RMK A01 T00611087  RH  034%=      5-min Rain = 0
KAI1 250112Z 08008KT 06/M09 A3017 RMK A01 T00601088  RH  034%=      5-min Rain = 0
KAI1 250113Z 08008KT 06/M09 A3017 RMK A01 T00591088  RH  034%=      5-min Rain = 0
KAI1 250114Z 08008KT 06/M09 A3017 RMK A01 T00591088  RH  034%=      5-min Rain = 0
KAI1 250115Z 08008KT 06/M09 A3017 RMK A01 T00581089  RH  034%=      5-min Rain = 0
KAI1 250116Z 08008KT 06/M09 A3017 RMK A01 T00571089  RH  034%=      5-min Rain = 0
KAI1 250117Z 08008KT 06/M09 A3017 RMK A01 T00571090  RH  034%=      5-min Rain = 0
KAI1 250118Z 08009KT 06/M09 A3017 RMK A01 T00551090  RH  034%=      5-min Rain = 0
KAI1 250119Z 08009KT 06/M09 A3017 RMK A01 T00551090  RH  035%=      5-min Rain = 0
KAI1 250120Z 08009KT 06/M09 A3017 RMK A01 T00551089  RH  035%=      5-min Rain = 0
KAI1 250121Z 08009KT 05/M09 A3017 RMK A01 T00541090  RH  035%=      5-min Rain = 0
KAI1 250122Z 08009KT 05/M09 A3017 RMK A01 T00531090  RH  035%=      5-min Rain = 0
KAI1 250123Z 08009KT 05/M09 A3017 RMK A01 T00521091  RH  035%=      5-min Rain = 0
KAI1 250124Z 07008KT 05/M09 A3017 RMK A01 T00501091  RH  035%=      5-min Rain = 0
KAI1 250125Z 07009KT 05/M09 A3017 RMK A01 T00491091  RH  036%=      5-min Rain = 0
KAI1 250126Z 08009KT 05/M09 A3017 RMK A01 T00481090  RH  036%=      5-min Rain = 0
KAI1 250127Z 08009KT 05/M09 A3017 RMK A01 T00491088  RH  036%=      5-min Rain = 0
KAI1 250128Z 08009KT 05/M09 A3017 RMK A01 T00501087  RH  036%=      5-min Rain = 0
KAI1 250129Z 07009KT 05/M09 A3017 RMK A01 T00511087  RH  036%=      5-min Rain = 0
KAI1 250130Z 07009KT 05/M09 A3017 RMK A01 T00511087  RH  036%=      5-min Rain = 0
KAI1 250131Z 07009KT 05/M09 A3017 RMK A01 T00511087  RH  036%=      5-min Rain = 0
KAI1 250132Z 07010KT 05/M09 A3017 RMK A01 T00501087  RH  036%=      5-min Rain = 0
KAI1 250133Z 08010KT 05/M09 A3017 RMK A01 T00511086  RH  036%=      5-min Rain = 0
KAI1 250134Z 08010KT 05/M09 A3017 RMK A01 T00501086  RH  037%=      5-min Rain = 0
KAI1 250135Z 08010KT 05/M09 A3018 RMK A01 T00501086  RH  037%=      5-min Rain = 0
KAI1 250136Z 08009KT 05/M09 A3018 RMK A01 T00511086  RH  037%=      5-min Rain = 0
KAI1 250137Z 08009KT 05/M09 A3018 RMK A01 T00511085  RH  037%=      5-min Rain = 0
KAI1 250138Z 08009KT 05/M09 A3018 RMK A01 T00511086  RH  037%=      5-min Rain = 0
KAI1 250139Z 08010KT 05/M09 A3018 RMK A01 T00511086  RH  037%=      5-min Rain = 0
KAI1 250140Z 08010KT 05/M09 A3018 RMK A01 T00501085  RH  037%=      5-min Rain = 0
KAI1 250141Z 08010KT 05/M09 A3018 RMK A01 T00511085  RH  037%=      5-min Rain = 0
KAI1 250142Z 07010KT 05/M08 A3018 RMK A01 T00521084  RH  037%=      5-min Rain = 0
KAI1 250143Z 07010KT 05/M08 A3018 RMK A01 T00531084  RH  037%=      5-min Rain = 0
KAI1 250144Z 07010KT 05/M08 A3018 RMK A01 T00531084  RH  036%=      5-min Rain = 0
KAI1 250145Z 07010KT 05/M08 A3018 RMK A01 T00541083  RH  037%=      5-min Rain = 0
KAI1 250146Z 07010KT 05/M08 A3018 RMK A01 T00541084  RH  036%=      5-min Rain = 0
KAI1 250147Z 07010KT 05/M08 A3018 RMK A01 T00531084  RH  036%=      5-min Rain = 0
KAI1 250148Z 07010KT 05/M08 A3018 RMK A01 T00541084  RH  036%=      5-min Rain = 0
KAI1 250149Z 07010KT 05/M08 A3018 RMK A01 T00541083  RH  036%=      5-min Rain = 0
KAI1 250150Z 07009KT 05/M08 A3018 RMK A01 T00541084  RH  036%=      5-min Rain = 0
KAI1 250151Z 07009KT 05/M08 A3018 RMK A01 T00541084  RH  036%=      5-min Rain = 0
KAI1 250152Z 08010KT 05/M08 A3018 RMK A01 T00531084  RH  036%=      5-min Rain = 0
KAI1 250153Z 08010KT 05/M08 A3018 RMK A01 T00531084  RH  037%=      5-min Rain = 0
KAI1 250154Z 08009KT 05/M08 A3019 RMK A01 T00531083  RH  037%=      5-min Rain = 0
KAI1 250155Z 08010KT 05/M08 A3019 RMK A01 T00531084  RH  037%=      5-min Rain = 0
KAI1 250156Z 08009KT 05/M08 A3019 RMK A01 T00531084  RH  037%=      5-min Rain = 0
KAI1 250157Z 08010KT 05/M08 A3019 RMK A01 T00521084  RH  037%=      5-min Rain = 0
KAI1 250158Z 08010KT 05/M08 A3019 RMK A01 T00521084  RH  037%=      5-min Rain = 0
KAI1 250159Z 08010KT 05/M08 A3019 RMK A01 T00521083  RH  037%=      5-min Rain = 0
KAI1 250200Z 07009KT 05/M08 A3019 RMK A01 T00521083  RH  037%=      5-min Rain = 0
KAI1 250201Z 07010KT 05/M08 A3019 RMK A01 T00511084  RH  037%=      5-min Rain = 0
KAI1 250202Z 07010KT 05/M08 A3019 RMK A01 T00511084  RH  037%=      5-min Rain = 0
KAI1 250203Z 07009KT 05/M08 A3019 RMK A01 T00511083  RH  037%=      5-min Rain = 0
KAI1 250204Z 07009KT 05/M08 A3019 RMK A01 T00511084  RH  037%=      5-min Rain = 0
KAI1 250205Z 07009KT 05/M08 A3019 RMK A01 T00501084  RH  037%=      5-min Rain = 0
KAI1 250206Z 07009KT 05/M09 A3019 RMK A01 T00481085  RH  038%=      5-min Rain = 0
KAI1 250207Z 07008KT 05/M09 A3019 RMK A01 T00471085  RH  038%=      5-min Rain = 0
KAI1 250208Z 07009KT 05/M09 A3019 RMK A01 T00461085  RH  038%=      5-min Rain = 0
KAI1 250209Z 07009KT 05/M09 A3019 RMK A01 T00451085  RH  038%=      5-min Rain = 0
KAI1 250210Z 07010KT 05/M08 A3019 RMK A01 T00461084  RH  038%=      5-min Rain = 0
KAI1 250211Z 07009KT 05/M08 A3019 RMK A01 T00461084  RH  038%=      5-min Rain = 0
KAI1 250212Z 07009KT 05/M08 A3019 RMK A01 T00471083  RH  038%=      5-min Rain = 0
KAI1 250213Z 07009KT 05/M08 A3019 RMK A01 T00481083  RH  038%=      5-min Rain = 0
KAI1 250214Z 07009KT 05/M08 A3019 RMK A01 T00491083  RH  038%=      5-min Rain = 0
KAI1 250215Z 07010KT 05/M08 A3019 RMK A01 T00501082  RH  038%=      5-min Rain = 0
KAI1 250216Z 07009KT 05/M08 A3019 RMK A01 T00511082  RH  038%=      5-min Rain = 0
KAI1 250217Z 07010KT 05/M08 A3019 RMK A01 T00521081  RH  038%=      5-min Rain = 0
KAI1 250218Z 07009KT 05/M08 A3019 RMK A01 T00531081  RH  038%=      5-min Rain = 0
KAI1 250219Z 07010KT 05/M08 A3019 RMK A01 T00531081  RH  037%=      5-min Rain = 0
KAI1 250220Z 07010KT 05/M08 A3019 RMK A01 T00541080  RH  037%=      5-min Rain = 0
KAI1 250221Z 07011KT 05/M08 A3019 RMK A01 T00531081  RH  037%=      5-min Rain = 0
KAI1 250222Z 08011KT 05/M08 A3019 RMK A01 T00541081  RH  037%=      5-min Rain = 0
KAI1 250223Z 07011KT 05/M08 A3019 RMK A01 T00531082  RH  037%=      5-min Rain = 0
KAI1 250224Z 07011KT 05/M08 A3019 RMK A01 T00541081  RH  037%=      5-min Rain = 0
KAI1 250225Z 07011KT 05/M08 A3019 RMK A01 T00541081  RH  037%=      5-min Rain = 0
KAI1 250226Z 07012KT 06/M08 A3019 RMK A01 T00551080  RH  037%=      5-min Rain = 0
KAI1 250227Z 07012KT 06/M08 A3019 RMK A01 T00561079  RH  037%=      5-min Rain = 0
KAI1 250228Z 07012KT 06/M08 A3019 RMK A01 T00571079  RH  037%=      5-min Rain = 0
KAI1 250229Z 07011KT 06/M08 A3019 RMK A01 T00571079  RH  037%=      5-min Rain = 0
KAI1 250230Z 07011KT 06/M08 A3019 RMK A01 T00571080  RH  037%=      5-min Rain = 0
KAI1 250231Z 07011KT 06/M08 A3019 RMK A01 T00561080  RH  037%=      5-min Rain = 0
KAI1 250232Z 07011KT 06/M08 A3019 RMK A01 T00561080  RH  037%=      5-min Rain = 0
KAI1 250233Z 08010KT 06/M08 A3019 RMK A01 T00561080  RH  037%=      5-min Rain = 0
KAI1 250234Z 07010KT 06/M08 A3019 RMK A01 T00551080  RH  037%=      5-min Rain = 0
KAI1 250235Z 07010KT 05/M08 A3019 RMK A01 T00541081  RH  037%=      5-min Rain = 0
KAI1 250236Z 07009KT 05/M08 A3019 RMK A01 T00521081  RH  038%=      5-min Rain = 0
KAI1 250237Z 07009KT 05/M08 A3019 RMK A01 T00511081  RH  038%=      5-min Rain = 0
KAI1 250238Z 07008KT 05/M08 A3019 RMK A01 T00501081  RH  038%=      5-min Rain = 0
KAI1 250239Z 07008KT 05/M08 A3019 RMK A01 T00491082  RH  038%=      5-min Rain = 0
KAI1 250240Z 07008KT 05/M08 A3019 RMK A01 T00481082  RH  039%=      5-min Rain = 0
KAI1 250241Z 07008KT 05/M08 A3019 RMK A01 T00471082  RH  039%=      5-min Rain = 0
KAI1 250242Z 07008KT 05/M08 A302 RMK A01 T00461082  RH  039%=      5-min Rain = 0
KAI1 250243Z 07008KT 05/M08 A302 RMK A01 T00451082  RH  039%=      5-min Rain = 0
KAI1 250244Z 07008KT 04/M08 A302 RMK A01 T00441083  RH  039%=      5-min Rain = 0
KAI1 250245Z 07008KT 04/M08 A302 RMK A01 T00441082  RH  039%=      5-min Rain = 0
KAI1 250246Z 07008KT 04/M08 A302 RMK A01 T00441082  RH  040%=      5-min Rain = 0
KAI1 250247Z 07008KT 04/M08 A302 RMK A01 T00431082  RH  040%=      5-min Rain = 0
KAI1 250248Z 07008KT 04/M08 A302 RMK A01 T00431082  RH  040%=      5-min Rain = 0
KAI1 250249Z 07008KT 04/M08 A302 RMK A01 T00421083  RH  040%=      5-min Rain = 0
KAI1 250250Z 08009KT 04/M08 A3019 RMK A01 T00421083  RH  040%=      5-min Rain = 0
KAI1 250251Z 08008KT 04/M08 A3019 RMK A01 T00421082  RH  040%=      5-min Rain = 0
KAI1 250252Z 08009KT 04/M08 A3019 RMK A01 T00421082  RH  040%=      5-min Rain = 0
KAI1 250253Z 08009KT 04/M08 A3019 RMK A01 T00421082  RH  040%=      5-min Rain = 0
KAI1 250254Z 08010KT 04/M08 A3019 RMK A01 T00421081  RH  040%=      5-min Rain = 0
KAI1 250255Z 08010KT 04/M08 A3019 RMK A01 T00441080  RH  040%=      5-min Rain = 0
KAI1 250256Z 08010KT 04/M08 A302 RMK A01 T00441080  RH  040%=      5-min Rain = 0
KAI1 250257Z 08009KT 05/M08 A302 RMK A01 T00451080  RH  040%=      5-min Rain = 0
KAI1 250258Z 08009KT 05/M08 A302 RMK A01 T00451079  RH  040%=      5-min Rain = 0
KAI1 250259Z 08009KT 05/M08 A302 RMK A01 T00451079  RH  040%=      5-min Rain = 0
KAI1 250300Z 08009KT 05/M08 A302 RMK A01 T00451079  RH  040%=      5-min Rain = 0
KAI1 250301Z 08009KT 05/M08 A302 RMK A01 T00451080  RH  040%=      5-min Rain = 0
KAI1 250302Z 08009KT 05/M08 A302 RMK A01 T00451080  RH  040%=      5-min Rain = 0
KAI1 250303Z 08009KT 04/M08 A302 RMK A01 T00441080  RH  040%=      5-min Rain = 0
KAI1 250304Z 08009KT 04/M08 A302 RMK A01 T00441081  RH  040%=      5-min Rain = 0
KAI1 250305Z 08009KT 04/M08 A302 RMK A01 T00431081  RH  040%=      5-min Rain = 0
KAI1 250306Z 08009KT 04/M08 A302 RMK A01 T00411081  RH  040%=      5-min Rain = 0
KAI1 250307Z 07010KT 04/M08 A3019 RMK A01 T00411081  RH  041%=      5-min Rain = 0
KAI1 250308Z 08010KT 04/M08 A3019 RMK A01 T00411080  RH  041%=      5-min Rain = 0
KAI1 250309Z 08011KT 04/M08 A3019 RMK A01 T00411080  RH  041%=      5-min Rain = 0
KAI1 250310Z 08011KT 04/M08 A3019 RMK A01 T00411080  RH  041%=      5-min Rain = 0
KAI1 250311Z 08011KT 04/M08 A3019 RMK A01 T00421080  RH  041%=      5-min Rain = 0
KAI1 250312Z 07010KT 04/M08 A3019 RMK A01 T00421080  RH  041%=      5-min Rain = 0
KAI1 250313Z 08010KT 04/M08 A3019 RMK A01 T00421080  RH  041%=      5-min Rain = 0
KAI1 250314Z 08010KT 04/M08 A3019 RMK A01 T00421080  RH  041%=      5-min Rain = 0
KAI1 250315Z 08009KT 04/M08 A302 RMK A01 T00421080  RH  041%=      5-min Rain = 0
KAI1 250316Z 08009KT 04/M08 A302 RMK A01 T00421080  RH  041%=      5-min Rain = 0
KAI1 250317Z 08009KT 04/M08 A302 RMK A01 T00421080  RH  041%=      5-min Rain = 0
KAI1 250318Z 08009KT 04/M08 A302 RMK A01 T00411080  RH  041%=      5-min Rain = 0
KAI1 250319Z 08009KT 04/M08 A302 RMK A01 T00401081  RH  041%=      5-min Rain = 0
KAI1 250320Z 08009KT 04/M08 A302 RMK A01 T00401080  RH  041%=      5-min Rain = 0
KAI1 250321Z 08009KT 04/M08 A302 RMK A01 T00391081  RH  041%=      5-min Rain = 0
KAI1 250322Z 08009KT 04/M08 A302 RMK A01 T00391080  RH  041%=      5-min Rain = 0
KAI1 250323Z 08009KT 04/M08 A302 RMK A01 T00391080  RH  042%=      5-min Rain = 0
KAI1 250324Z 08010KT 04/M08 A302 RMK A01 T00391080  RH  042%=      5-min Rain = 0
KAI1 250325Z 08010KT 04/M08 A302 RMK A01 T00391080  RH  042%=      5-min Rain = 0
KAI1 250326Z 08010KT 04/M08 A302 RMK A01 T00391080  RH  042%=      5-min Rain = 0
KAI1 250327Z 08010KT 04/M08 A302 RMK A01 T00391080  RH  042%=      5-min Rain = 0
KAI1 250328Z 08010KT 04/M08 A302 RMK A01 T00391080  RH  041%=      5-min Rain = 0
KAI1 250329Z 08010KT 04/M08 A302 RMK A01 T00391081  RH  041%=      5-min Rain = 0
KAI1 250330Z 08010KT 04/M08 A302 RMK A01 T00391081  RH  041%=      5-min Rain = 0
KAI1 250331Z 08011KT 04/M08 A302 RMK A01 T00401080  RH  041%=      5-min Rain = 0
KAI1 250332Z 08011KT 04/M08 A302 RMK A01 T00401080  RH  041%=      5-min Rain = 0
KAI1 250333Z 08011KT 04/M08 A302 RMK A01 T00411080  RH  041%=      5-min Rain = 0
KAI1 250334Z 08011KT 04/M08 A302 RMK A01 T00401080  RH  041%=      5-min Rain = 0
KAI1 250335Z 08011KT 04/M08 A302 RMK A01 T00411080  RH  041%=      5-min Rain = 0
KAI1 250336Z 08011KT 04/M08 A302 RMK A01 T00431080  RH  041%=      5-min Rain = 0
KAI1 250337Z 08012KT 04/M08 A302 RMK A01 T00431080  RH  041%=      5-min Rain = 0
KAI1 250338Z 08011KT 04/M08 A302 RMK A01 T00431079  RH  041%=      5-min Rain = 0
KAI1 250339Z 08011KT 04/M08 A302 RMK A01 T00431079  RH  041%=      5-min Rain = 0
KAI1 250340Z 08011KT 04/M08 A302 RMK A01 T00421080  RH  041%=      5-min Rain = 0
KAI1 250341Z 08011KT 04/M08 A302 RMK A01 T00411080  RH  041%=      5-min Rain = 0
KAI1 250342Z 08011KT 04/M08 A3021 RMK A01 T00411080  RH  041%=      5-min Rain = 0
KAI1 250343Z 08011KT 04/M08 A3021 RMK A01 T00411080  RH  041%=      5-min Rain = 0
KAI1 250344Z 08011KT 04/M08 A3021 RMK A01 T00401080  RH  041%=      5-min Rain = 0
KAI1 250345Z 08012KT 04/M08 A3021 RMK A01 T00401080  RH  041%=      5-min Rain = 0
KAI1 250346Z 08011KT 04/M08 A3021 RMK A01 T00401080  RH  041%=      5-min Rain = 0
KAI1 250347Z 08011KT 04/M08 A3021 RMK A01 T00391080  RH  041%=      5-min Rain = 0
KAI1 250348Z 08011KT 04/M08 A3021 RMK A01 T00391080  RH  041%=      5-min Rain = 0
KAI1 250349Z 08012KT 04/M08 A3021 RMK A01 T00401080  RH  041%=      5-min Rain = 0
KAI1 250350Z 08011KT 04/M08 A302 RMK A01 T00411080  RH  041%=      5-min Rain = 0
KAI1 250351Z 08011KT 04/M08 A302 RMK A01 T00411080  RH  041%=      5-min Rain = 0
KAI1 250352Z 08012KT 04/M08 A302 RMK A01 T00411081  RH  041%=      5-min Rain = 0
KAI1 250353Z 08011KT 04/M08 A302 RMK A01 T00401080  RH  041%=      5-min Rain = 0
KAI1 250354Z 08011KT 04/M08 A302 RMK A01 T00401080  RH  041%=      5-min Rain = 0
KAI1 250355Z 08012KT 04/M08 A302 RMK A01 T00401080  RH  041%=      5-min Rain = 0
KAI1 250356Z 08012KT 04/M08 A302 RMK A01 T00401080  RH  041%=      5-min Rain = 0
KAI1 250357Z 08011KT 04/M08 A302 RMK A01 T00401080  RH  041%=      5-min Rain = 0
KAI1 250358Z 08011KT 04/M08 A302 RMK A01 T00401080  RH  041%=      5-min Rain = 0
KAI1 250359Z 08011KT 04/M08 A302 RMK A01 T00401080  RH  041%=      5-min Rain = 0
KAI1 250400Z 08011KT 04/M08 A302 RMK A01 T00401080  RH  041%=      5-min Rain = 0
KAI1 250401Z 08011KT 04/M08 A3021 RMK A01 T00391080  RH  042%=      5-min Rain = 0
KAI1 250402Z 09011KT 04/M08 A3021 RMK A01 T00391079  RH  042%=      5-min Rain = 0
KAI1 250403Z 08011KT 04/M08 A3021 RMK A01 T00391080  RH  042%=      5-min Rain = 0
KAI1 250404Z 08010KT 04/M08 A3021 RMK A01 T00391079  RH  042%=      5-min Rain = 0
KAI1 250405Z 08010KT 04/M08 A3021 RMK A01 T00381080  RH  042%=      5-min Rain = 0
KAI1 250406Z 08011KT 04/M08 A3021 RMK A01 T00381079  RH  042%=      5-min Rain = 0
KAI1 250407Z 08011KT 04/M08 A3021 RMK A01 T00381080  RH  042%=      5-min Rain = 0
KAI1 250408Z 08011KT 04/M08 A3021 RMK A01 T00371080  RH  042%=      5-min Rain = 0
KAI1 250409Z 09011KT 04/M08 A3021 RMK A01 T00371079  RH  042%=      5-min Rain = 0
KAI1 250410Z 08010KT 04/M08 A3021 RMK A01 T00361080  RH  042%=      5-min Rain = 0
KAI1 250411Z 08010KT 04/M08 A3021 RMK A01 T00361080  RH  043%=      5-min Rain = 0
KAI1 250412Z 09010KT 04/M08 A3021 RMK A01 T00351080  RH  043%=      5-min Rain = 0
KAI1 250413Z 09011KT 04/M08 A3021 RMK A01 T00351080  RH  043%=      5-min Rain = 0
KAI1 250414Z 08010KT 03/M08 A3021 RMK A01 T00341080  RH  043%=      5-min Rain = 0
KAI1 250415Z 09010KT 03/M08 A3021 RMK A01 T00331080  RH  043%=      5-min Rain = 0
KAI1 250416Z 08010KT 03/M08 A3021 RMK A01 T00331080  RH  043%=      5-min Rain = 0
KAI1 250417Z 08010KT 03/M08 A3021 RMK A01 T00331080  RH  043%=      5-min Rain = 0
KAI1 250418Z 09010KT 03/M08 A3021 RMK A01 T00331080  RH  043%=      5-min Rain = 0
KAI1 250419Z 09010KT 03/M08 A3021 RMK A01 T00321080  RH  044%=      5-min Rain = 0
KAI1 250420Z 09010KT 03/M08 A3021 RMK A01 T00331080  RH  043%=      5-min Rain = 0
KAI1 250421Z 09010KT 03/M08 A3021 RMK A01 T00321080  RH  043%=      5-min Rain = 0
KAI1 250422Z 08010KT 03/M08 A3021 RMK A01 T00321080  RH  044%=      5-min Rain = 0
KAI1 250423Z 08010KT 03/M08 A3021 RMK A01 T00331079  RH  044%=      5-min Rain = 0
KAI1 250424Z 09010KT 03/M08 A3021 RMK A01 T00331080  RH  044%=      5-min Rain = 0
KAI1 250425Z 08010KT 03/M08 A3021 RMK A01 T00331079  RH  044%=      5-min Rain = 0
KAI1 250426Z 08010KT 03/M08 A3021 RMK A01 T00321080  RH  044%=      5-min Rain = 0
KAI1 250427Z 08010KT 03/M08 A3021 RMK A01 T00321080  RH  044%=      5-min Rain = 0
KAI1 250428Z 08010KT 03/M08 A3021 RMK A01 T00321080  RH  044%=      5-min Rain = 0
KAI1 250429Z 08010KT 03/M08 A3021 RMK A01 T00321080  RH  044%=      5-min Rain = 0
KAI1 250430Z 08010KT 03/M08 A3021 RMK A01 T00311081  RH  044%=      5-min Rain = 0
KAI1 250431Z 09010KT 03/M08 A3021 RMK A01 T00301081  RH  044%=      5-min Rain = 0
KAI1 250432Z 09010KT 03/M08 A3021 RMK A01 T00301081  RH  044%=      5-min Rain = 0
KAI1 250433Z 09010KT 03/M08 A3021 RMK A01 T00301081  RH  044%=      5-min Rain = 0
KAI1 250434Z 09010KT 03/M08 A302 RMK A01 T00301080  RH  044%=      5-min Rain = 0
KAI1 250435Z 09011KT 03/M08 A302 RMK A01 T00301080  RH  044%=      5-min Rain = 0
KAI1 250436Z 09011KT 03/M08 A302 RMK A01 T00311080  RH  044%=      5-min Rain = 0
KAI1 250437Z 09011KT 03/M08 A302 RMK A01 T00321080  RH  044%=      5-min Rain = 0
KAI1 250438Z 09011KT 03/M08 A302 RMK A01 T00321080  RH  044%=      5-min Rain = 0
KAI1 250439Z 09011KT 03/M08 A302 RMK A01 T00341079  RH  043%=      5-min Rain = 0
KAI1 250440Z 09012KT 03/M08 A302 RMK A01 T00341079  RH  043%=      5-min Rain = 0
KAI1 250441Z 09012KT 04/M08 A302 RMK A01 T00361079  RH  043%=      5-min Rain = 0
KAI1 250442Z 09012KT 04/M08 A302 RMK A01 T00371079  RH  042%=      5-min Rain = 0
KAI1 250443Z 09013KT 04/M08 A302 RMK A01 T00371079  RH  042%=      5-min Rain = 0
KAI1 250444Z 09013KT 04/M08 A302 RMK A01 T00381079  RH  042%=      5-min Rain = 0
KAI1 250445Z 09013KT 04/M08 A302 RMK A01 T00391079  RH  042%=      5-min Rain = 0
KAI1 250446Z 09013KT 04/M08 A302 RMK A01 T00391079  RH  042%=      5-min Rain = 0
KAI1 250447Z 09012KT 04/M08 A302 RMK A01 T00401079  RH  042%=      5-min Rain = 0
KAI1 250448Z 09012KT 04/M08 A302 RMK A01 T00391079  RH  042%=      5-min Rain = 0
KAI1 250449Z 09012KT 04/M08 A302 RMK A01 T00391079  RH  042%=      5-min Rain = 0
KAI1 250450Z 09012KT 04/M08 A302 RMK A01 T00391079  RH  042%=      5-min Rain = 0
KAI1 250451Z 09012KT 04/M08 A302 RMK A01 T00381079  RH  042%=      5-min Rain = 0
KAI1 250452Z 09012KT 04/M08 A302 RMK A01 T00391079  RH  042%=      5-min Rain = 0
KAI1 250453Z 09014KT 04/M08 A302 RMK A01 T00381079  RH  042%=      5-min Rain = 0
KAI1 250454Z 09012KT 04/M08 A302 RMK A01 T00391079  RH  042%=      5-min Rain = 0
KAI1 250455Z 09013KT 04/M08 A302 RMK A01 T00391079  RH  042%=      5-min Rain = 0
KAI1 250456Z 09013KT 04/M08 A302 RMK A01 T00391079  RH  042%=      5-min Rain = 0
KAI1 250457Z 09013KT 04/M08 A302 RMK A01 T00381080  RH  042%=      5-min Rain = 0
KAI1 250458Z 09013KT 04/M08 A302 RMK A01 T00381079  RH  042%=      5-min Rain = 0
KAI1 250459Z 09013KT 04/M08 A302 RMK A01 T00381080  RH  042%=      5-min Rain = 0
KAI1 250500Z 09014KT 04/M08 A302 RMK A01 T00381080  RH  042%=      5-min Rain = 0
KAI1 250501Z 09014KT 04/M08 A302 RMK A01 T00381080  RH  042%=      5-min Rain = 0
KAI1 250502Z 09013KT 04/M08 A302 RMK A01 T00391079  RH  042%=      5-min Rain = 0
KAI1 250503Z 09014KT 04/M08 A302 RMK A01 T00391080  RH  042%=      5-min Rain = 0
KAI1 250504Z 09014KT 04/M08 A302 RMK A01 T00391080  RH  041%=      5-min Rain = 0
KAI1 250505Z 09013KT 04/M08 A3021 RMK A01 T00401080  RH  041%=      5-min Rain = 0
KAI1 250506Z 09014KT 04/M08 A3021 RMK A01 T00401081  RH  041%=      5-min Rain = 0
KAI1 250507Z 09014KT 04/M08 A3021 RMK A01 T00391081  RH  041%=      5-min Rain = 0
KAI1 250508Z 09014KT 04/M08 A3021 RMK A01 T00391081  RH  041%=      5-min Rain = 0
KAI1 250509Z 09013KT 04/M08 A3021 RMK A01 T00391081  RH  041%=      5-min Rain = 0
KAI1 250510Z 09013KT 04/M08 A3021 RMK A01 T00381081  RH  041%=      5-min Rain = 0
KAI1 250511Z 08013KT 04/M08 A3021 RMK A01 T00381081  RH  041%=      5-min Rain = 0
KAI1 250512Z 08013KT 04/M08 A3021 RMK A01 T00381081  RH  042%=      5-min Rain = 0
KAI1 250513Z 09013KT 04/M08 A3021 RMK A01 T00371082  RH  042%=      5-min Rain = 0
KAI1 250514Z 09013KT 04/M08 A3021 RMK A01 T00371082  RH  042%=      5-min Rain = 0
KAI1 250515Z 08012KT 04/M08 A3021 RMK A01 T00361082  RH  042%=      5-min Rain = 0
KAI1 250516Z 08012KT 04/M08 A302 RMK A01 T00361082  RH  042%=      5-min Rain = 0
KAI1 250517Z 08012KT 03/M08 A3021 RMK A01 T00341082  RH  042%=      5-min Rain = 0
KAI1 250518Z 08012KT 03/M08 A3021 RMK A01 T00331082  RH  043%=      5-min Rain = 0
KAI1 250519Z 08011KT 03/M08 A3021 RMK A01 T00321082  RH  043%=      5-min Rain = 0
KAI1 250520Z 08012KT 03/M08 A3021 RMK A01 T00311082  RH  043%=      5-min Rain = 0
KAI1 250521Z 08012KT 03/M08 A3021 RMK A01 T00311081  RH  044%=      5-min Rain = 0
KAI1 250522Z 08012KT 03/M08 A3021 RMK A01 T00311081  RH  044%=      5-min Rain = 0
KAI1 250523Z 08012KT 03/M08 A3021 RMK A01 T00311081  RH  044%=      5-min Rain = 0
KAI1 250524Z 08012KT 03/M08 A3021 RMK A01 T00301081  RH  044%=      5-min Rain = 0
KAI1 250525Z 08012KT 03/M08 A3021 RMK A01 T00291081  RH  044%=      5-min Rain = 0
KAI1 250526Z 08012KT 03/M08 A3021 RMK A01 T00291081  RH  044%=      5-min Rain = 0
KAI1 250527Z 08012KT 03/M08 A3021 RMK A01 T00281081  RH  044%=      5-min Rain = 0
KAI1 250528Z 08011KT 03/M08 A3021 RMK A01 T00281081  RH  044%=      5-min Rain = 0
KAI1 250529Z 08011KT 03/M08 A3021 RMK A01 T00281081  RH  045%=      5-min Rain = 0
KAI1 250530Z 08012KT 03/M08 A3021 RMK A01 T00281081  RH  045%=      5-min Rain = 0
KAI1 250531Z 08012KT 03/M08 A3021 RMK A01 T00281081  RH  045%=      5-min Rain = 0
KAI1 250532Z 08012KT 03/M08 A3021 RMK A01 T00281081  RH  045%=      5-min Rain = 0
KAI1 250533Z 09012KT 03/M08 A3021 RMK A01 T00281080  RH  045%=      5-min Rain = 0
KAI1 250534Z 09012KT 03/M08 A3021 RMK A01 T00281081  RH  045%=      5-min Rain = 0
KAI1 250535Z 09012KT 03/M08 A3021 RMK A01 T00281081  RH  045%=      5-min Rain = 0
KAI1 250536Z 08012KT 03/M08 A3021 RMK A01 T00281080  RH  045%=      5-min Rain = 0
KAI1 250537Z 08013KT 03/M08 A3021 RMK A01 T00291080  RH  045%=      5-min Rain = 0
KAI1 250538Z 09012KT 03/M08 A3021 RMK A01 T00291080  RH  045%=      5-min Rain = 0
KAI1 250539Z 09012KT 03/M08 A3021 RMK A01 T00291080  RH  045%=      5-min Rain = 0
KAI1 250540Z 09012KT 03/M08 A3021 RMK A01 T00291079  RH  045%=      5-min Rain = 0
KAI1 250541Z 09013KT 03/M08 A3021 RMK A01 T00281079  RH  045%=      5-min Rain = 0
KAI1 250542Z 09013KT 03/M08 A3021 RMK A01 T00281079  RH  045%=      5-min Rain = 0
KAI1 250543Z 09012KT 03/M08 A3021 RMK A01 T00291079  RH  045%=      5-min Rain = 0
KAI1 250544Z 09012KT 03/M08 A3021 RMK A01 T00291078  RH  045%=      5-min Rain = 0
KAI1 250545Z 09013KT 03/M08 A3021 RMK A01 T00291078  RH  045%=      5-min Rain = 0
KAI1 250546Z 09012KT 03/M08 A3021 RMK A01 T00291078  RH  045%=      5-min Rain = 0
KAI1 250547Z 09012KT 03/M08 A3021 RMK A01 T00291078  RH  045%=      5-min Rain = 0
KAI1 250548Z 09012KT 03/M08 A302 RMK A01 T00291078  RH  045%=      5-min Rain = 0
KAI1 250549Z 09012KT 03/M08 A302 RMK A01 T00281078  RH  045%=      5-min Rain = 0
KAI1 250550Z 09013KT 03/M08 A302 RMK A01 T00281078  RH  046%=      5-min Rain = 0
KAI1 250551Z 09013KT 03/M08 A302 RMK A01 T00291077  RH  045%=      5-min Rain = 0
KAI1 250552Z 09013KT 03/M08 A3021 RMK A01 T00291077  RH  045%=      5-min Rain = 0
KAI1 250553Z 09012KT 03/M08 A3021 RMK A01 T00291077  RH  045%=      5-min Rain = 0
KAI1 250554Z 09013KT 03/M08 A3021 RMK A01 T00291077  RH  045%=      5-min Rain = 0
KAI1 250555Z 09012KT 03/M08 A3021 RMK A01 T00291077  RH  045%=      5-min Rain = 0
KAI1 250556Z 09013KT 03/M08 A3021 RMK A01 T00291077  RH  045%=      5-min Rain = 0
KAI1 250557Z 09013KT 03/M08 A3021 RMK A01 T00291077  RH  046%=      5-min Rain = 0
KAI1 250558Z 09012KT 03/M08 A3021 RMK A01 T00291077  RH  045%=      5-min Rain = 0
KAI1 250559Z 09012KT 03/M08 A3021 RMK A01 T00291077  RH  046%=      5-min Rain = 0

Page generated in 0.1218 seconds.